Site Date DSCMET_AIRTEMP_MEAN_150_0_01 DSCMET_AIRTEMP_MEAN_1000_0_02 DSCMET_AIRTEMP_MEAN_2000_0_03 DSCMET_AIRTEMP_MEAN_3000_0_04 DSCMET_AIRTEMP_MEAN_4000_0_05 DSCMET_RELHUM_MEAN_150_0_01 DSCMET_DEWPT_MEAN_150_0_01 DSCMET_VPD_MEAN_150_0_01 DSCMET_LWV_MEAN_150_0_01 DSCMET_LWV_MEAN_1000_0_02 DSCMET_LWV_MEAN_2000_0_03 DSCMET_AIRTEMP_MEAN_5000_0_06 DSCMET_RELHUM_MEAN_5000_0_06 DSCMET_DEWPT_MEAN_5000_0_06 DSCMET_VPD_MEAN_5000_0_06 DSCMET_LW_MEAN_3000_0_04 DSCMET_LW_MEAN_4000_0_05 DSCMET_LW_MEAN_5000_0_06 DSCMET_WSPD_SNC_MEAN_150_0_01 DSCMET_WDIR_SNC_MEAN_150_0_01 DSCMET_WSPD_SNC_MEAN_5000_0_02 DSCMET_WDIR_SNC_MEAN_5000_0_02 PRIMET_LW_OUT_MEAN_600_0_02 PRIMET_LW_IN_MEAN_600_0_02 PRIMET_SW_OUT_MEAN_600_0_02 PRIMET_SW_IN_MEAN_600_0_02
DSCMET_COMPS 2018-04-20 22:25:00 7.835 8.020 7.978 8.040 8.120 100.000 7.841 -0.000 267.300 266.700 266.000               0.1240 89.600            
DSCMET_COMPS 2018-04-20 22:20:00 7.856 8.060 8.000 8.040 8.060 100.000 7.862 0.000 267.300 266.800 266.000               0.1720 52.010            
DSCMET_COMPS 2018-04-20 22:15:00 7.897 8.090 8.040 8.100 8.140 100.000 7.903 0.000 267.300 266.900 266.000               0.0860 101.900            
DSCMET_COMPS 2018-04-20 22:10:00 7.915 8.110 8.040 8.130 8.160 100.000 7.924 0.000 267.300 266.800 266.000               0.1260 79.140            
DSCMET_COMPS 2018-04-20 22:05:00 7.926 8.140 8.060 8.110 8.130 100.000 7.934 -0.000 267.300 267.000 266.000               0.1750 42.730            
DSCMET_COMPS 2018-04-20 22:00:00 7.980 8.140 8.070 8.160 8.200 100.000 7.987 0.000 267.300 267.000 266.000               0.1330 101.100            
DSCMET_COMPS 2018-04-20 21:55:00 7.969 8.120 8.060 8.090 8.130 100.000 7.975 -0.000 267.300 267.000 265.900               0.1690 343.300            
DSCMET_COMPS 2018-04-20 21:50:00 7.965 8.110 8.060 8.120 8.100 100.000 7.971 0.000 267.300 267.100 265.900               0.1450 80.200            
DSCMET_COMPS 2018-04-20 21:45:00 7.941 8.090 8.010 8.010 8.000 100.000 7.947 0.000 267.300 266.800 265.900               0.1900 6.670            
DSCMET_COMPS 2018-04-20 21:40:00 8.070 8.150 8.070 8.080 8.030 100.100 8.080 -0.011 267.300 266.700 265.900               0.1600 76.300            
DSCMET_COMPS 2018-04-20 21:35:00 8.070 8.210 8.120 8.140 8.120 100.000 8.070 0.000 267.300 266.700 265.900                 0.000            
DSCMET_COMPS 2018-04-20 21:30:00 8.060 8.240 8.190 8.260 8.220 100.000 8.070 0.000 267.300 266.600 265.900               0.0820 57.300            
DSCMET_COMPS 2018-04-20 21:25:00 8.160 8.320 8.260 8.270 8.250 100.000 8.170 0.000 267.300 266.600 265.900               0.1050 42.550            
DSCMET_COMPS 2018-04-20 21:20:00 8.230 8.440 8.340 8.290 8.290 100.000 8.240 0.000 267.300 266.700 265.900               0.1530 352.600            
DSCMET_COMPS 2018-04-20 21:15:00 8.320 8.480 8.380 8.460 8.460 100.000 8.330 0.000 267.300 266.600 265.700               0.0690 352.000            
DSCMET_COMPS 2018-04-20 21:10:00 8.420 8.590 8.550 8.610 8.640 100.000 8.430 0.000 267.300 266.600 265.800               0.0790 64.160            
DSCMET_COMPS 2018-04-20 21:05:00 8.560 8.710 8.660 8.740 8.740 100.000 8.570 0.000 267.300 266.700 265.800               0.0690 17.730            
DSCMET_COMPS 2018-04-20 21:00:00 8.660 8.840 8.780 8.850 8.880 100.000 8.670 0.000 267.300 266.800 265.800               0.1170 26.100            
DSCMET_COMPS 2018-04-20 20:55:00 8.770 8.940 8.910 8.980 8.930 100.000 8.770 0.000 267.300 266.800 265.700               0.0900 5.210            
DSCMET_COMPS 2018-04-20 20:50:00 8.790 9.080 9.070 9.140 9.170 100.000 8.800 0.000 267.300 267.000 265.800               0.0760 75.100            
DSCMET_COMPS 2018-04-20 20:45:00 8.980 9.230 9.200 9.430 9.610 100.000 8.990 0.000 267.300 267.100 265.900               0.1220 95.500            
DSCMET_COMPS 2018-04-20 20:40:00 9.070 9.290 9.230 9.350 9.510 100.000 9.080 0.000 267.300 267.000 265.700               0.0890 336.000            
DSCMET_COMPS 2018-04-20 20:35:00 8.990 9.340 9.340 9.380 9.470 100.000 9.000 0.000 267.300 267.100 265.700               0.1010 51.890            
DSCMET_COMPS 2018-04-20 20:30:00 9.100 9.410 9.420 9.480 9.580 100.000 9.110 0.000 267.300 267.100 265.800                 0.000            
DSCMET_COMPS 2018-04-20 20:25:00 9.130 9.430 9.420 9.470 9.460 100.000 9.140 -0.000 267.300 267.100 265.700                 0.000            
DSCMET_COMPS 2018-04-20 20:20:00 9.190 9.480 9.470 9.540 9.620 100.000 9.200 -0.000 267.300 267.100 265.500               0.1250 87.600            
DSCMET_COMPS 2018-04-20 20:15:00 9.290 9.550 9.530 9.590 9.580 100.000 9.300 0.000 267.300 267.100 265.500               0.0920 81.200            
DSCMET_COMPS 2018-04-20 20:10:00 9.440 9.660 9.630 9.710 9.710 100.000 9.450 0.000 267.300 267.100 265.300               0.1050 81.500            
DSCMET_COMPS 2018-04-20 20:05:00 9.460 9.740 9.720 9.760 9.740 100.000 9.460 0.000 267.300 267.100 265.300               0.0710 72.470            
DSCMET_COMPS 2018-04-20 20:00:00 9.520 9.800 9.770 9.800 9.780 100.000 9.520 0.000 267.300 267.000 265.300               0.0830 88.300            
DSCMET_COMPS 2018-04-20 19:55:00 9.540 9.860 9.840 9.910 9.920 100.000 9.550 0.000 267.300 266.900 265.300               0.0800 85.600            
DSCMET_COMPS 2018-04-20 19:50:00 9.620 9.930 9.910 9.980 9.980 100.000 9.620 0.000 267.300 266.600 265.300               0.0810 102.900            
DSCMET_COMPS 2018-04-20 19:45:00 9.690 10.030 9.960 10.050 10.110 100.000 9.700 -0.000 267.300 266.600 265.300               0.1410 67.800            
DSCMET_COMPS 2018-04-20 19:40:00 9.740 10.100 10.080 10.150 10.150 100.100 9.760 -0.012 267.300 266.700 265.300               0.1740 48.300            
DSCMET_COMPS 2018-04-20 19:35:00 9.950 10.250 10.200 10.400 10.610 100.000 9.960 0.000 267.300 266.900 265.300               0.1460 100.200            
DSCMET_COMPS 2018-04-20 19:30:00 9.920 10.330 10.300 10.410 10.480 100.000 9.930 -0.000 267.300 266.600 265.300               0.1260 6.718            
DSCMET_COMPS 2018-04-20 19:25:00 9.980 10.440 10.460 10.540 10.640 100.000 9.990 0.000 267.300 266.600 265.300               0.1450 89.500            
DSCMET_COMPS 2018-04-20 19:20:00 10.070 10.560 10.580 10.680 10.900 100.000 10.080 0.000 267.300 266.600 265.300                 0.000            
DSCMET_COMPS 2018-04-20 19:15:00 10.100 10.670 10.740 10.830 10.850 100.000 10.110 -0.000 267.300 266.600 265.300               0.1200 92.000            
DSCMET_COMPS 2018-04-20 19:10:00 10.240 10.830 10.870 11.010 11.000 100.000 10.250 0.000 267.300 266.600 265.300               0.2470 88.800            
DSCMET_COMPS 2018-04-20 19:05:00 10.290 10.950 11.000 11.130 11.200 100.000 10.300 0.000 267.300 266.600 265.300               0.1260 93.100            
DSCMET_COMPS 2018-04-20 19:00:00 10.420 11.040 11.170 11.280 11.310 100.000 10.430 0.000 267.300 266.600 265.300               0.1500 91.100            
DSCMET_COMPS 2018-04-20 18:55:00 10.450 11.110 11.320 11.510 11.580 100.000 10.460 0.000 267.300 266.600 265.300               0.1320 85.600            
DSCMET_COMPS 2018-04-20 18:50:00 10.540 11.220 11.460 11.650 11.720 100.000 10.550 0.000 267.300 266.600 265.300               0.1570 89.900            
DSCMET_COMPS 2018-04-20 18:45:00 10.610 11.280 11.580 11.780 11.930 100.000 10.620 0.000 267.300 266.600 265.300               0.1640 89.200            
DSCMET_COMPS 2018-04-20 18:40:00 10.660 11.300 11.630 11.880 12.020 100.000 10.670 0.000 267.300 266.600 265.300               0.2080 85.800            
DSCMET_COMPS 2018-04-20 18:35:00 10.800 11.410 11.760 12.030 12.170 100.100 10.820 -0.013 267.300 266.600 265.300               0.1400 77.810            
DSCMET_COMPS 2018-04-20 18:30:00 10.850 11.510 11.900 12.160 12.410 100.000 10.860 0.000 267.300 266.600 265.300               0.1290 102.100            
DSCMET_COMPS 2018-04-20 18:25:00 10.890 11.540 11.900 12.240 12.440 100.000 10.890 -0.000 267.300 266.600 265.300               0.1610 92.300            
DSCMET_COMPS 2018-04-20 18:20:00 10.980 11.600 11.980 12.420 12.580 100.000 10.990 -0.000 267.300 266.600 265.300               0.2150 65.960            
DSCMET_COMPS 2018-04-20 18:15:00 10.960 11.690 12.110 12.510 12.720 100.000 10.970 0.000 267.300 266.600 265.300               0.1870 119.400            
DSCMET_COMPS 2018-04-20 18:10:00 11.060 11.730 12.150 12.560 12.890 100.000 11.070 -0.000 267.300 266.600 265.100                 0.000            
DSCMET_COMPS 2018-04-20 18:05:00 11.150 11.830 12.240 12.640 12.940 100.000 11.160 -0.000 267.300 266.600 264.900               0.1070 98.800            
DSCMET_COMPS 2018-04-20 18:00:00 11.170 11.850 12.230 12.700 13.110 100.000 11.180 0.000 267.500 266.600 264.700               0.1860 128.400            
DSCMET_COMPS 2018-04-20 17:55:00 11.130 11.910 12.330 12.770 13.020 100.000 11.140 0.000 267.400 266.600 264.600               0.1540 344.500            
DSCMET_COMPS 2018-04-20 17:50:00 11.120 11.940 12.390 12.800 13.110 100.000 11.130 0.000 267.500 266.600 264.600               0.2430 115.800            
DSCMET_COMPS 2018-04-20 17:45:00 11.180 11.970 12.470 12.860 13.190 100.000 11.190 0.000 267.500 266.600 264.600               0.2760 72.810            
DSCMET_COMPS 2018-04-20 17:40:00 11.270 12.080 12.620 12.990 13.290 100.000 11.280 0.000 267.800 266.600 264.600               0.2540 87.900            
DSCMET_COMPS 2018-04-20 17:35:00 11.290 12.170 12.680 13.090 13.360 100.000 11.300 0.000 267.800 266.600 264.600               0.1890 100.000            
DSCMET_COMPS 2018-04-20 17:30:00 11.450 12.270 12.860 13.340 13.680 100.000 11.460 0.000 267.800 266.600 264.600               0.3260 106.400            
DSCMET_COMPS 2018-04-20 17:25:00 11.510 12.340 12.920 13.400 13.750 99.700 11.470 0.041 268.000 266.600 264.600               0.2150 97.600            
DSCMET_COMPS 2018-04-20 17:20:00 11.650 12.500 13.120 13.610 14.050 99.100 11.520 0.123 268.000 266.600 264.600               0.2040 93.600            
DSCMET_COMPS 2018-04-20 17:15:00 11.760 12.580 13.190 13.800 14.320 98.800 11.580 0.166 268.000 266.600 264.600               0.1280 96.900            
DSCMET_COMPS 2018-04-20 17:10:00 11.800 12.670 13.310 14.010 14.600 98.200 11.530 0.249 268.000 266.600 264.600               0.1570 82.500            
DSCMET_COMPS 2018-04-20 17:05:00 11.810 12.750 13.360 14.140 14.750 98.100 11.520 0.263 268.000 266.600 264.600                 0.000            
DSCMET_COMPS 2018-04-20 17:00:00 11.830 12.850 13.430 14.340 15.070 97.100 11.390 0.402 268.000 266.600 264.600               0.1280 92.700            
DSCMET_COMPS 2018-04-20 16:55:00 11.870 12.900 13.450 14.350 15.220 97.100 11.440 0.403 268.000 266.600 264.600               0.2090 98.100            
DSCMET_COMPS 2018-04-20 16:50:00 11.840 12.780 13.400 14.240 14.800 97.700 11.500 0.319 268.000 266.600 264.600               0.0720 58.170            
DSCMET_COMPS 2018-04-20 16:45:00 11.840 12.710 13.330 14.070 14.620 97.300 11.440 0.375 268.600 266.600 264.600               0.2100 68.550            
DSCMET_COMPS 2018-04-20 16:40:00 11.870 12.730 13.430 14.100 14.590 98.100 11.590 0.264 268.700 266.600 264.600               0.1570 88.100            
DSCMET_COMPS 2018-04-20 16:35:00 11.920 12.770 13.480 14.170 14.640 99.200 11.810 0.112 268.700 266.600 264.600               0.1440 87.000            
DSCMET_COMPS 2018-04-20 16:30:00 12.000 12.810 13.460 14.190 14.710 100.000 12.000 0.000 268.700 266.600 264.600               0.1830 88.700            
DSCMET_COMPS 2018-04-20 16:25:00 12.150 12.920 13.550 14.300 14.870 99.600 12.100 0.057 269.300 266.600 264.600               0.1650 83.400            
DSCMET_COMPS 2018-04-20 16:20:00 12.180 12.990 13.600 14.380 15.000 99.000 12.040 0.142 269.300 266.600 264.600               0.1440 86.500            
DSCMET_COMPS 2018-04-20 16:15:00 12.050 12.870 13.640 14.490 15.210 99.900 12.050 0.014 269.300 266.600 264.600               0.1100 74.950            
DSCMET_COMPS 2018-04-20 16:10:00 12.120 12.880 13.520 14.460 15.350 99.400 12.050 0.085 270.000 266.600 264.600               0.2430 119.900            
DSCMET_COMPS 2018-04-20 16:05:00 12.080 12.860 13.560 14.300 14.920 99.400 12.000 0.085 270.500 266.600 264.600               0.2080 71.340            
DSCMET_COMPS 2018-04-20 16:00:00 12.110 12.890 13.620 14.390 14.920 99.100 11.980 0.127 271.600 266.100 264.600               0.1370 98.500            
DSCMET_COMPS 2018-04-20 15:55:00 12.080 12.900 13.590 14.320 14.780 99.200 11.980 0.113 272.400 265.900 264.400                 0.000            
DSCMET_COMPS 2018-04-20 15:50:00 12.210 13.060 13.740 14.500 15.040 99.400 12.130 0.085 273.800 265.900 264.600               0.2160 92.600            
DSCMET_COMPS 2018-04-20 15:45:00 12.290 13.090 13.710 14.590 15.200 99.700 12.250 0.043 275.300 266.000 264.200               0.2040 73.120            
DSCMET_COMPS 2018-04-20 15:40:00 12.290 13.160 13.890 14.700 15.340 98.800 12.110 0.172 276.800 265.900 263.900               0.1370 106.200            
DSCMET_COMPS 2018-04-20 15:35:00 12.290 13.230 13.990 14.830 15.510 99.000 12.150 0.143 278.700 265.900 263.900               0.1190 91.700            
DSCMET_COMPS 2018-04-20 15:30:00 12.330 13.220 13.980 14.920 15.610 98.700 12.140 0.186 280.900 265.900 263.900               0.1170 107.400            
DSCMET_COMPS 2018-04-20 15:25:00 12.440 13.230 14.090 14.980 15.990 99.000 12.290 0.144 283.300 265.900 263.900               0.3460 69.590            
DSCMET_COMPS 2018-04-20 15:20:00 12.420 13.210 14.020 14.860 15.440 98.200 12.160 0.260 286.000 265.900 263.900               0.2030 100.100            
DSCMET_COMPS 2018-04-20 15:15:00 12.390 13.230 14.070 14.850 15.430 98.000 12.100 0.288 288.400 265.900 263.900               0.1160 75.050            
DSCMET_COMPS 2018-04-20 15:10:00 12.540 13.440 14.280 15.020 15.570 96.500 12.010 0.509 291.600 265.900 263.400               0.2560 91.200            
DSCMET_COMPS 2018-04-20 15:05:00 12.720 13.630 14.520 15.380 15.960 96.700 12.230 0.485 295.100 265.900 263.200               0.1740 95.800            
DSCMET_COMPS 2018-04-20 15:00:00 12.910 13.920 14.870 15.680 16.440 97.200 12.490 0.417 298.200 265.900 263.200               0.2290 86.500            
DSCMET_COMPS 2018-04-20 14:55:00 13.070 14.110 15.110 16.180 17.030 97.600 12.720 0.361 301.200 265.500 263.100               0.2040 87.400            
DSCMET_COMPS 2018-04-20 14:50:00 13.250 14.440 15.720 16.850 17.580 97.200 12.830 0.426 304.600 265.300 262.600               0.3050 90.000            
DSCMET_COMPS 2018-04-20 14:45:00 13.410 14.830 15.940 17.080 17.790 96.200 12.830 0.585 308.300 265.300 262.600                 0.000            
DSCMET_COMPS 2018-04-20 14:40:00 13.410 14.860 16.370 17.530 18.150 96.900 12.940 0.477 312.700 265.200 262.400               0.2460 90.700            
DSCMET_COMPS 2018-04-20 14:35:00 13.600 15.590 16.970 18.000 18.560 94.300 12.710 0.888 318.300 264.600 261.900               0.3300 75.760            
DSCMET_COMPS 2018-04-20 14:30:00 13.530 15.200 16.520 17.820 18.510 93.300 12.490 1.039 325.600 264.600 262.100               0.3470 40.160            
DSCMET_COMPS 2018-04-20 14:25:00 13.570 15.450 17.000 18.010 18.460 92.200 12.340 1.212 331.900 264.600 261.900               0.1640 94.400            
DSCMET_COMPS 2018-04-20 14:20:00 13.910 16.690 17.790 18.400 18.650 85.600 11.540 2.288 339.700 264.500 261.900               0.3330 63.990            
DSCMET_COMPS 2018-04-20 14:15:00 14.040 16.740 17.680 18.450 18.820 84.300 11.430 2.516 350.400 264.500 261.800               0.5030 355.600            
DSCMET_COMPS 2018-04-20 14:10:00 14.460 17.540 18.280 18.880 19.010 76.340 10.340 3.896 360.100 264.400 261.800               0.2500 83.900            
DSCMET_COMPS 2018-04-20 14:05:00 15.170 17.770 18.590 19.150 19.770 72.850 10.330 4.680 372.200 264.600 261.900               0.3860 311.900            
DSCMET_COMPS 2018-04-20 14:00:00 15.610 18.100 18.610 19.080 19.530 61.190 8.140 6.882 386.800 264.700 261.900               0.4450 313.100            
DSCMET_COMPS 2018-04-20 13:55:00 14.640 17.000 18.100 18.870 19.530 81.100 11.390 3.149 403.900 265.300 262.400               0.3890 318.100            
DSCMET_COMPS 2018-04-20 13:50:00 14.140 16.520 17.900 18.860 19.480 88.000 12.200 1.936 412.200 265.400 262.600               0.4760 90.500            
DSCMET_COMPS 2018-04-20 13:45:00 14.100 16.590 18.150 19.030 19.420 89.600 12.420 1.673 418.900 265.300 262.400               0.5900 313.500            
DSCMET_COMPS 2018-04-20 13:40:00 13.780 16.460 17.920 18.980 19.370 91.200 12.370 1.387 426.200 266.400 262.600                 0.000            
DSCMET_COMPS 2018-04-20 13:35:00 13.640 15.930 17.520 18.730 19.290 96.100 13.040 0.609 431.000 270.600 262.600                 0.000            
DSCMET_COMPS 2018-04-20 13:30:00 13.630 15.680 17.020 18.010 18.740 94.900 12.850 0.796 434.400 276.200 262.600               0.3240 75.700            
DSCMET_COMPS 2018-04-20 13:25:00 13.740 15.510 16.870 18.000 18.730 92.300 12.520 1.210 440.000 285.000 262.600               0.4950 14.930            
DSCMET_COMPS 2018-04-20 13:20:00 13.500 15.190 16.740 17.990 18.720 94.500 12.640 0.851 444.200 291.200 262.300               0.2080 85.300            
DSCMET_COMPS 2018-04-20 13:15:00 13.360 15.220 17.030 18.030 18.530 94.300 12.470 0.874 448.800 299.000 262.000               0.4910 64.990            
DSCMET_COMPS 2018-04-20 13:10:00 13.310 15.340 16.930 17.990 18.660 97.100 12.870 0.443 454.400 307.900 262.400               0.3580 90.700            
DSCMET_COMPS 2018-04-20 13:05:00 13.060 14.560 15.980 17.340 18.650 98.300 12.810 0.256 463.000 314.500 263.200               0.2260 55.740            
DSCMET_COMPS 2018-04-20 13:00:00 13.080 14.770 16.170 17.340 17.970 97.400 12.680 0.391 470.100 318.500 263.200               0.2160 65.100            
DSCMET_COMPS 2018-04-20 12:55:00 13.490 15.320 16.520 17.420 18.080 94.100 12.570 0.912 477.400 324.100 262.800               0.2950 83.100            
DSCMET_COMPS 2018-04-20 12:50:00 13.300 14.420 15.740 17.130 18.160 96.800 12.810 0.489 485.900 330.100 263.200               0.2700 1.868            
DSCMET_COMPS 2018-04-20 12:45:00 13.410 14.750 16.120 17.500 18.480 96.900 12.940 0.477 490.700 332.600 263.200               0.2460 85.100            
DSCMET_COMPS 2018-04-20 12:40:00 13.290 14.930 16.040 17.370 17.900 98.000 12.980 0.305 494.200 335.600 263.100               0.2130 51.010            
DSCMET_COMPS 2018-04-20 12:35:00 13.390 15.110 16.350 17.260 17.650 95.800 12.730 0.645 498.000 340.800 262.600               0.2840 29.210            
DSCMET_COMPS 2018-04-20 12:30:00 13.330 15.020 16.210 17.170 17.690 97.700 12.980 0.352 501.600 346.500 262.600                 0.000            
DSCMET_COMPS 2018-04-20 12:25:00 13.460 15.570 16.780 17.490 17.850 93.900 12.500 0.941 504.300 350.600 262.600               0.1510 64.090            
DSCMET_COMPS 2018-04-20 12:20:00 13.450 16.100 17.080 17.730 17.930 88.200 11.550 1.820 509.200 356.200 262.600               0.2840 78.900            
DSCMET_COMPS 2018-04-20 12:15:00 13.230 15.350 16.610 17.480 17.830 87.400 11.180 1.916 516.600 362.600 263.100               0.4040 42.160            
DSCMET_COMPS 2018-04-20 12:10:00 13.440 15.160 16.190 17.100 17.460 86.000 11.150 2.158 522.700 368.000 263.200               0.3280 335.400            
DSCMET_COMPS 2018-04-20 12:05:00 13.000 14.830 16.170 17.040 17.350 94.000 12.070 0.899 528.000 372.800 263.200               0.2370 341.800            
DSCMET_COMPS 2018-04-20 12:00:00 12.980 15.340 17.100 17.820 17.660 96.100 12.390 0.583 530.700 377.200 263.300               0.2870 96.700            
DSCMET_COMPS 2018-04-20 11:55:00 12.940 14.870 16.450 17.280 17.560 96.300 12.370 0.552 533.600 381.800 264.000               0.4490 75.910            
DSCMET_COMPS 2018-04-20 11:50:00 12.650 14.680 15.900 16.880 17.970 96.900 12.180 0.454 536.400 384.800 264.400               0.2530 173.800            
DSCMET_COMPS 2018-04-20 11:45:00 12.480 14.410 15.590 16.600 17.660 96.500 11.950 0.507 539.600 389.400 264.400               0.1760 74.230            
DSCMET_COMPS 2018-04-20 11:40:00 12.430 14.000 15.340 16.340 17.460 96.600 11.910 0.491 541.900 392.700 264.600               0.1830 121.800            
DSCMET_COMPS 2018-04-20 11:35:00 12.110 13.470 15.030 16.010 17.400 98.500 11.890 0.212 543.900 394.900 264.900               0.1810 92.500            
DSCMET_COMPS 2018-04-20 11:30:00 11.900 13.310 14.510 15.760 16.890 97.500 11.530 0.348 545.800 396.400 265.300               0.2060 81.000            
DSCMET_COMPS 2018-04-20 11:25:00 11.770 13.150 14.390 15.540 16.580 93.800 10.800 0.856 548.200 398.000 265.300               0.1880 96.300            
DSCMET_COMPS 2018-04-20 11:20:00 11.350 12.740 14.200 15.220 16.290 92.900 10.260 0.954 551.100 399.700 265.300                 0.000            
DSCMET_COMPS 2018-04-20 11:15:00 11.090 12.670 14.410 14.840 16.190 95.900 10.470 0.541 553.300 401.300 265.300               0.2030 87.000            
DSCMET_COMPS 2018-04-20 11:10:00 11.180 12.940 14.420 14.390 16.300 98.600 10.980 0.186 555.500 402.900 265.300               0.2430 96.600            
DSCMET_COMPS 2018-04-20 11:05:00 11.220 12.680 14.000 13.990 15.810 100.000 11.230 0.000 556.400 405.200 265.900               0.2560 103.700            
DSCMET_COMPS 2018-04-20 11:00:00 11.160 12.440 13.270 13.680 15.630 99.800 11.140 0.027 560.700 406.600 266.000               0.2250 124.800            
DSCMET_COMPS 2018-04-20 10:55:00 11.040 12.530 13.490 13.340 15.470 99.700 11.010 0.039 566.100 408.200 266.000               0.1740 79.330            
DSCMET_COMPS 2018-04-20 10:50:00 10.640 12.350 13.190 12.960 15.160 98.700 10.450 0.167 574.500 410.200 267.100               0.2940 17.820            
DSCMET_COMPS 2018-04-20 10:45:00 10.340 11.970 12.730 12.530 14.790 98.600 10.140 0.176 579.100 413.100 272.000               0.2090 97.300            
DSCMET_COMPS 2018-04-20 10:40:00 10.070 11.670 12.470 12.090 14.490 99.800 10.050 0.025 581.300 416.900 277.600               0.1730 334.800            
DSCMET_COMPS 2018-04-20 10:35:00 9.700 11.240 12.030 11.670 14.180 100.000 9.710 0.000 582.500 420.200 283.500               0.1100 67.890            
DSCMET_COMPS 2018-04-20 10:30:00 9.500 10.640 11.550 11.320 13.680 100.000 9.520 0.000 583.600 424.300 290.100               0.1280 29.450            
DSCMET_COMPS 2018-04-20 10:25:00 9.170 10.110 10.950 11.050 13.270 100.000 9.180 0.000 584.800 425.800 293.400               0.1260 53.390            
DSCMET_COMPS 2018-04-20 10:20:00 8.900 9.850 10.700 10.780 13.090 100.000 8.900 -0.000 585.700 426.600 296.700               0.0910 61.520            
DSCMET_COMPS 2018-04-20 10:15:00 8.620 9.590 10.440 10.490 12.760 100.000 8.630 0.000 586.400 427.300 299.900                 0.000            
DSCMET_COMPS 2018-04-20 10:10:00 8.350 9.360 10.340 10.200 12.430 100.000 8.360 -0.000 587.300 427.700 303.600               0.1900 46.110            
DSCMET_COMPS 2018-04-20 10:05:00 8.130 9.040 9.940 9.920 12.020 100.000 8.140 -0.000 587.900 428.300 307.100               0.1290 66.680            
DSCMET_COMPS 2018-04-20 10:00:00 7.959 8.790 9.500 9.680 11.580 100.000 7.968 -0.000 588.600 428.800 309.700               0.1630 72.740            
DSCMET_COMPS 2018-04-20 09:55:00 7.607 8.520 9.150 9.460 11.210 100.000 7.612 0.000 589.100 429.100 311.600               0.1570 8.810            
DSCMET_COMPS 2018-04-20 09:50:00 7.344 8.290 8.970 9.240 11.070 100.000 7.349 0.000 589.700 429.500 313.800               0.1020 36.090            
DSCMET_COMPS 2018-04-20 09:45:00 7.153 8.120 8.830 9.020 10.820 100.000 7.156 0.000 590.300 429.900 316.400               0.1160 76.760            
DSCMET_COMPS 2018-04-20 09:40:00 7.019 7.908 8.610 8.790 10.380 100.000 7.025 0.000 590.500 430.700 318.600               0.2200 80.200            
DSCMET_COMPS 2018-04-20 09:35:00 6.873 7.664 8.340 8.540 10.070 100.000 6.885 0.000 591.100 431.600 320.300               0.1380 81.500            
DSCMET_COMPS 2018-04-20 09:30:00 6.582 7.436 8.100 8.170 9.880 100.000 6.590 0.000 591.700 432.300 321.600               0.0940 75.370            
DSCMET_COMPS 2018-04-20 09:25:00 6.296 7.189 7.893 7.912 9.680 100.000 6.301 0.000 592.100 432.300 322.700               0.1250 68.640            
DSCMET_COMPS 2018-04-20 09:20:00 6.000 6.900 7.539 7.684 9.250 100.000 6.006 0.000 592.700 432.900 323.900               0.1250 61.630            
DSCMET_COMPS 2018-04-20 09:15:00 5.766 6.639 7.282 7.449 9.020 100.000 5.771 0.000 593.200 433.000 325.100               0.0940 65.410            
DSCMET_COMPS 2018-04-20 09:10:00 5.537 6.418 7.033 7.204 8.770 100.000 5.541 0.000 593.500 433.500 326.200                 0.000            
DSCMET_COMPS 2018-04-20 09:05:00 5.358 6.118 6.702 6.956 8.410 100.000 5.366 0.000 593.900 434.300 327.100                 0.000            
DSCMET_COMPS 2018-04-20 09:00:00 5.112 5.860 6.452 6.706 8.040 100.000 5.117 0.000 594.600 434.400 327.900               0.0770 67.370            
DSCMET_COMPS 2018-04-20 08:55:00 4.844 5.638 6.256 6.445 7.788 100.000 4.849 0.000 594.800 434.600 328.800               0.0520 63.270            
DSCMET_COMPS 2018-04-20 08:50:00 4.629 5.442 6.104 6.176 7.515 100.000 4.632 0.000 595.300 435.100 329.700               0.0490 68.820            
DSCMET_COMPS 2018-04-20 08:45:00 4.361 5.223 5.901 5.896 7.394 100.000 4.363 0.000 595.800 435.100 330.400               0.0760 86.900            
DSCMET_COMPS 2018-04-20 08:40:00 4.191 5.007 5.709 5.620 7.274 100.100 4.205 -0.008 596.000 435.500 331.300               0.1250 87.200            
DSCMET_COMPS 2018-04-20 08:35:00 3.887 4.745 5.491 5.353 6.941 100.000 3.894 0.000 596.500 435.800 331.900               0.1700 87.900            
DSCMET_COMPS 2018-04-20 08:30:00 3.557 4.421 5.121 5.067 6.545 100.000 3.559 0.000 597.000 435.800 332.400               0.0260 90.000            
DSCMET_COMPS 2018-04-20 08:25:00 3.285 4.117 4.893 4.795 6.501 100.000 3.286 0.000 597.400 436.300 332.900               0.0640 90.900            
DSCMET_COMPS 2018-04-20 08:20:00 3.107 3.826 4.574 4.518 6.052 100.000 3.108 0.000 598.000 436.400 333.400               0.0380 73.920            
DSCMET_COMPS 2018-04-20 08:15:00 2.958 3.603 4.366 4.244 5.878 100.000 2.961 0.000 598.600 436.400 334.000               0.1490 89.400            
DSCMET_COMPS 2018-04-20 08:10:00 2.734 3.274 4.041 3.971 5.466 100.000 2.735 -0.000 598.800 437.000 334.100               0.0620 79.110            
DSCMET_COMPS 2018-04-20 08:05:00 2.539 3.061 3.892 3.671 5.091 100.000 2.538 -0.000 599.400 437.100 334.900               0.1570 86.800            
DSCMET_COMPS 2018-04-20 08:00:00 2.386 2.846 3.610 3.389 4.829 100.000 2.385 0.000 599.800 437.100 335.700                 0.000            
DSCMET_COMPS 2018-04-20 07:55:00 2.301 2.590 3.296 3.145 4.418 100.100 2.311 -0.007 600.000 437.500 336.000               0.1590 84.100            
DSCMET_COMPS 2018-04-20 07:50:00 2.036 2.314 2.915 2.917 4.150 100.000 2.039 -0.000 600.300 437.800 336.500               0.1510 85.800            
DSCMET_COMPS 2018-04-20 07:45:00 1.870 2.137 2.718 2.682 3.905 100.000 1.869 0.000 600.700 437.800 336.800               0.1610 87.100            
DSCMET_COMPS 2018-04-20 07:40:00 1.731 1.981 2.468 2.450 3.570 100.000 1.730 0.000 601.000 438.200 337.300               0.1910 85.100            
DSCMET_COMPS 2018-04-20 07:35:00 1.632 1.832 2.301 2.209 3.163 100.000 1.634 0.000 601.400 438.500 337.300               0.1870 81.700            
DSCMET_COMPS 2018-04-20 07:30:00 1.517 1.705 2.086 1.995 2.861 100.000 1.518 0.000 601.700 438.500 337.400               0.2130 90.300            
DSCMET_COMPS 2018-04-20 07:25:00 1.422 1.579 1.877 1.775 2.802 100.000 1.421 0.000 602.100 438.500 338.000               0.1900 90.900            
DSCMET_COMPS 2018-04-20 07:20:00 1.298 1.460 1.646 1.565 2.520 100.000 1.297 0.000 602.700 438.500 338.000               0.2840 83.300            
DSCMET_COMPS 2018-04-20 07:15:00 1.173 1.331 1.546 1.361 2.325 100.000 1.172 0.000 602.700 438.900 338.000               0.2110 82.100            
DSCMET_COMPS 2018-04-20 07:10:00 1.144 1.177 1.227 1.188 2.165 100.100 1.153 -0.007 603.200 439.200 338.000               0.2790 90.000            
DSCMET_COMPS 2018-04-20 07:05:00 0.994 1.106 1.129 1.033 1.928 100.000 1.000 0.000 603.400 439.200 338.200               0.2140 82.800            
DSCMET_COMPS 2018-04-20 07:00:00 0.869 1.029 1.042 0.908 1.744 100.000 0.868 0.000 603.800 439.200 338.700               0.1680 82.600            
DSCMET_COMPS 2018-04-20 06:55:00 0.877 0.959 0.959 0.792 1.538 100.000 0.876 -0.000 604.100 439.700 338.700                 0.000            
DSCMET_COMPS 2018-04-20 06:50:00 0.823 0.900 0.980 0.660 1.327 100.000 0.821 0.000 604.100 439.800 338.700               0.2150 88.100            
DSCMET_COMPS 2018-04-20 06:45:00 0.640 0.800 0.809 0.558 1.202 100.000 0.639 0.000 604.800 439.800 338.700               0.2160 85.500            
DSCMET_COMPS 2018-04-20 06:40:00 0.624 0.697 0.640 0.516 0.774 100.000 0.626 0.000 605.000 439.800 338.700               0.1980 353.200            
DSCMET_COMPS 2018-04-20 06:35:00 0.675 0.740 0.611 0.499 0.647 100.000 0.675 0.000 605.500 440.100 338.700               0.2490 9.130            
DSCMET_COMPS 2018-04-20 06:30:00 0.709 0.750 0.602 0.484 0.609 100.000 0.707 0.000 605.500 440.500 338.700               0.2550 9.250            
DSCMET_COMPS 2018-04-20 06:25:00 0.640 0.696 0.617 0.475 0.548 100.000 0.638 0.000 605.900 440.500 338.700               0.2500 13.770            
DSCMET_COMPS 2018-04-20 06:20:00 0.597 0.659 0.579 0.471 0.534 100.000 0.595 0.000 606.100 440.500 338.700               0.1890 34.460            
DSCMET_COMPS 2018-04-20 06:15:00 0.633 0.653 0.562 0.475 0.521 100.100 0.643 -0.006 606.600 440.700 338.700               0.2620 24.190            
DSCMET_COMPS 2018-04-20 06:10:00 0.633 0.685 0.585 0.475 0.577 100.000 0.636 0.000 606.800 441.200 338.700               0.1770 60.160            
DSCMET_COMPS 2018-04-20 06:05:00 0.645 0.685 0.589 0.468 0.632 100.000 0.644 0.000 606.800 441.200 338.600               0.2160 33.510            
DSCMET_COMPS 2018-04-20 06:00:00 0.540 0.701 0.587 0.463 0.611 100.000 0.538 0.000 607.500 441.200 338.200               0.1590 41.230            
DSCMET_COMPS 2018-04-20 05:55:00 0.567 0.719 0.621 0.463 0.650 100.000 0.568 0.000 607.600 441.200 338.100               0.1840 75.500            
DSCMET_COMPS 2018-04-20 05:50:00 0.606 0.681 0.603 0.462 0.602 100.000 0.606 -0.000 608.200 441.400 338.000                 0.000            
DSCMET_COMPS 2018-04-20 05:45:00 0.590 0.704 0.588 0.463 0.555 100.000 0.589 0.000 608.300 441.900 338.000               0.1240 59.200            
DSCMET_COMPS 2018-04-20 05:40:00 0.611 0.656 0.543 0.474 0.576 100.000 0.609 0.000 608.900 441.900 338.000               0.1650 314.200            
DSCMET_COMPS 2018-04-20 05:35:00 0.621 0.678 0.543 0.495 0.595 100.100 0.629 -0.006 609.100 442.000 338.000               0.1810 28.080            
DSCMET_COMPS 2018-04-20 05:30:00 0.609 0.655 0.529 0.522 0.511 100.000 0.611 0.000 609.500 442.400 338.000               0.2250 352.800            
DSCMET_COMPS 2018-04-20 05:25:00 0.731 0.785 0.660 0.539 0.553 100.000 0.730 0.000 609.500 442.600 338.000               0.2490 10.270            
DSCMET_COMPS 2018-04-20 05:20:00 0.662 0.746 0.634 0.558 0.602 100.000 0.660 0.000 609.800 442.600 338.000               0.1860 40.210            
DSCMET_COMPS 2018-04-20 05:15:00 0.704 0.754 0.633 0.584 0.577 100.000 0.705 0.000 610.200 442.600 338.000               0.2580 356.800            
DSCMET_COMPS 2018-04-20 05:10:00 0.609 0.711 0.643 0.615 0.624 100.000 0.609 0.000 610.800 443.000 338.000               0.2680 344.200            
DSCMET_COMPS 2018-04-20 05:05:00 0.739 0.835 0.677 0.646 0.616 100.000 0.738 0.000 610.900 443.200 338.000               0.2770 346.700            
DSCMET_COMPS 2018-04-20 05:00:00 0.790 0.854 0.707 0.688 0.676 100.000 0.788 -0.000 611.000 443.200 338.000               0.2180 345.500            
DSCMET_COMPS 2018-04-20 04:55:00 0.778 0.831 0.705 0.737 0.666 100.000 0.782 0.000 611.600 443.300 338.000               0.2330 27.850            
DSCMET_COMPS 2018-04-20 04:50:00 0.908 0.946 0.818 0.781 0.736 100.000 0.914 0.000 612.000 443.900 338.000               0.2070 16.680            
DSCMET_COMPS 2018-04-20 04:45:00 0.889 0.950 0.848 0.819 0.808 100.000 0.890 0.000 612.200 443.900 338.000                 0.000            
DSCMET_COMPS 2018-04-20 04:40:00 0.912 0.957 0.894 0.859 0.813 100.000 0.911 0.000 612.200 443.900 338.000               0.2450 340.900            
DSCMET_COMPS 2018-04-20 04:35:00 0.998 1.045 0.939 0.897 0.840 100.000 0.999 0.000 612.800 444.400 338.000               0.1710 37.080            
DSCMET_COMPS 2018-04-20 04:30:00 1.010 1.061 0.967 0.938 0.922 100.000 1.012 0.000 612.900 444.600 338.000               0.1440 3.049            
DSCMET_COMPS 2018-04-20 04:25:00 1.028 1.093 1.002 0.979 0.969 100.000 1.027 0.000 613.300 444.600 337.900               0.1430 64.050            
DSCMET_COMPS 2018-04-20 04:20:00 1.111 1.197 1.052 1.029 0.987 100.000 1.109 0.000 613.600 444.700 337.600               0.1650 29.860            
DSCMET_COMPS 2018-04-20 04:15:00 1.151 1.193 1.085 1.065 1.070 100.000 1.156 0.000 613.900 445.200 337.300               0.1540 51.900            
DSCMET_COMPS 2018-04-20 04:10:00 1.173 1.228 1.145 1.102 1.074 100.000 1.179 0.000 614.300 445.200 337.300               0.1780 68.710            
DSCMET_COMPS 2018-04-20 04:05:00 1.241 1.293 1.193 1.133 1.160 100.000 1.241 0.000 614.500 445.200 337.300               0.1960 342.200            
DSCMET_COMPS 2018-04-20 04:00:00 1.226 1.304 1.204 1.166 1.211 100.000 1.225 0.000 614.900 445.400 337.300               0.1530 45.460            
DSCMET_COMPS 2018-04-20 03:55:00 1.253 1.347 1.235 1.200 1.246 100.000 1.253 0.000 614.900 445.900 337.300               0.1740 48.420            
DSCMET_COMPS 2018-04-20 03:50:00 1.291 1.379 1.271 1.232 1.311 100.000 1.293 0.000 615.600 445.900 337.300               0.1720 60.380            
DSCMET_COMPS 2018-04-20 03:45:00 1.296 1.364 1.294 1.271 1.236 100.000 1.297 0.000 615.600 445.900 337.300               0.2260 339.400            
DSCMET_COMPS 2018-04-20 03:40:00 1.336 1.420 1.348 1.314 1.257 100.000 1.335 0.000 616.100 446.400 337.300                 0.000            
DSCMET_COMPS 2018-04-20 03:35:00 1.363 1.454 1.343 1.361 1.309 100.000 1.362 -0.000 616.200 446.500 337.300               0.1500 40.250            
DSCMET_COMPS 2018-04-20 03:30:00 1.396 1.505 1.410 1.406 1.313 100.000 1.394 0.000 616.500 446.500 337.300               0.1980 34.980            
DSCMET_COMPS 2018-04-20 03:25:00 1.472 1.535 1.451 1.448 1.446 100.000 1.480 0.000 616.900 446.600 337.300               0.1480 55.020            
DSCMET_COMPS 2018-04-20 03:20:00 1.488 1.628 1.468 1.489 1.435 100.000 1.492 -0.000 617.100 447.100 337.300               0.1550 71.130            
DSCMET_COMPS 2018-04-20 03:15:00 1.544 1.713 1.612 1.525 1.536 100.000 1.542 0.000 617.600 447.200 337.300               0.1310 71.620            
DSCMET_COMPS 2018-04-20 03:10:00 1.554 1.712 1.636 1.534 1.705 100.000 1.553 0.000 617.600 447.200 337.300               0.0970 80.200            
DSCMET_COMPS 2018-04-20 03:05:00 1.679 1.749 1.592 1.563 1.589 100.000 1.680 0.000 618.200 447.600 337.200               0.1690 51.290            
DSCMET_COMPS 2018-04-20 03:00:00 1.620 1.792 1.644 1.607 1.626 100.000 1.620 0.000 618.200 447.800 336.700               0.0690 52.820            
DSCMET_COMPS 2018-04-20 02:55:00 1.680 1.794 1.630 1.661 1.652 100.000 1.679 -0.000 618.700 447.900 336.600               0.1750 322.700            
DSCMET_COMPS 2018-04-20 02:50:00 1.746 1.872 1.771 1.702 1.685 100.000 1.745 0.000 618.900 447.900 336.600               0.1820 27.680            
DSCMET_COMPS 2018-04-20 02:45:00 1.789 1.908 1.793 1.730 1.742 100.000 1.790 0.000 618.900 448.100 336.600               0.2380 30.740            
DSCMET_COMPS 2018-04-20 02:40:00 1.940 1.961 1.880 1.755 1.784 100.000 1.946 -0.000 619.500 448.500 336.600               0.1660 75.380            
DSCMET_COMPS 2018-04-20 02:35:00 1.885 1.902 1.804 1.794 1.750 100.000 1.885 0.000 619.500 448.500 336.600                 0.000            
DSCMET_COMPS 2018-04-20 02:30:00 1.848 1.937 1.841 1.843 1.770 100.000 1.846 0.000 620.100 448.500 336.600               0.1460 14.970            
DSCMET_COMPS 2018-04-20 02:25:00 1.882 2.003 1.897 1.893 1.834 100.000 1.881 0.000 620.200 448.900 336.600               0.1960 10.800            
DSCMET_COMPS 2018-04-20 02:20:00 1.993 2.068 1.942 1.946 1.869 100.000 1.994 0.000 620.200 449.200 336.600               0.1590 55.850            
DSCMET_COMPS 2018-04-20 02:15:00 2.011 2.111 1.962 1.999 1.903 100.000 2.011 0.000 620.800 449.200 336.600               0.1280 69.480            
DSCMET_COMPS 2018-04-20 02:10:00 2.033 2.169 2.047 2.049 2.029 100.000 2.031 -0.000 621.000 449.200 336.600               0.1520 69.560            
DSCMET_COMPS 2018-04-20 02:05:00 2.132 2.214 2.073 2.102 2.083 100.000 2.130 0.000 621.500 449.600 336.600               0.1390 43.840            
DSCMET_COMPS 2018-04-20 02:00:00 2.215 2.267 2.170 2.157 2.149 100.000 2.220 0.000 621.600 449.900 336.600               0.1440 77.710            
DSCMET_COMPS 2018-04-20 01:55:00 2.265 2.357 2.165 2.206 2.145 100.000 2.268 0.000 621.800 449.900 336.600               0.1740 48.720            
DSCMET_COMPS 2018-04-20 01:50:00 2.297 2.416 2.208 2.270 2.237 100.000 2.297 0.000 622.200 449.900 336.600               0.1260 62.540            
DSCMET_COMPS 2018-04-20 01:45:00 2.342 2.464 2.349 2.319 2.312 100.000 2.341 0.000 622.200 450.500 336.600               0.0960 65.280            
DSCMET_COMPS 2018-04-20 01:40:00 2.346 2.489 2.391 2.354 2.453 100.000 2.345 0.000 622.700 450.600 336.600               0.0920 77.580            
DSCMET_COMPS 2018-04-20 01:35:00 2.429 2.549 2.418 2.401 2.444 100.000 2.431 0.000 622.900 450.700 336.500               0.1350 84.800            
DSCMET_COMPS 2018-04-20 01:30:00 2.439 2.614 2.430 2.454 2.409 100.000 2.439 0.000 623.100 451.200 336.100                 0.000            
DSCMET_COMPS 2018-04-20 01:25:00 2.545 2.590 2.472 2.514 2.440 100.000 2.544 -0.000 623.600 451.200 335.900               0.0880 25.710            
DSCMET_COMPS 2018-04-20 01:20:00 2.602 2.676 2.534 2.570 2.551 100.000 2.605 0.000 623.600 451.400 335.900               0.1150 20.560            
DSCMET_COMPS 2018-04-20 01:15:00 2.697 2.676 2.553 2.628 2.542 100.000 2.703 -0.000 624.100 451.800 335.900               0.1470 43.850            
DSCMET_COMPS 2018-04-20 01:10:00 2.663 2.736 2.625 2.695 2.575 100.000 2.665 0.000 624.300 451.900 335.900               0.1370 334.900            
DSCMET_COMPS 2018-04-20 01:05:00 2.774 2.891 2.777 2.761 2.601 100.000 2.775 0.000 624.300 451.900 335.900               0.1960 339.400            
DSCMET_COMPS 2018-04-20 01:00:00 2.811 2.906 2.799 2.810 2.731 100.000 2.810 0.000 624.800 452.100 335.900               0.1780 47.760            
DSCMET_COMPS 2018-04-20 00:55:00 2.836 2.937 2.838 2.868 2.700 100.000 2.838 0.000 624.900 452.600 335.900               0.1850 33.840            
DSCMET_COMPS 2018-04-20 00:50:00 2.957 3.026 2.957 2.925 2.796 100.000 2.957 0.000 625.100 452.600 335.900               0.2440 36.790            
DSCMET_COMPS 2018-04-20 00:45:00 3.035 3.112 2.949 2.982 2.885 100.000 3.036 -0.000 625.600 452.700 335.500               0.1890 50.560            
DSCMET_COMPS 2018-04-20 00:40:00 3.072 3.131 3.013 3.042 2.938 100.000 3.073 0.000 625.600 453.300 335.200               0.1360 73.730            
DSCMET_COMPS 2018-04-20 00:35:00 3.143 3.169 3.060 3.113 2.995 100.000 3.147 0.000 625.800 453.300 335.300               0.1610 66.620            
DSCMET_COMPS 2018-04-20 00:30:00 3.181 3.239 3.136 3.184 3.104 100.000 3.188 0.000 626.300 453.300 335.300               0.1120 82.600            
DSCMET_COMPS 2018-04-20 00:25:00 3.291 3.334 3.204 3.252 3.197 100.000 3.291 0.000 626.300 453.600 335.200                 0.000            
DSCMET_COMPS 2018-04-20 00:20:00 3.296 3.441 3.297 3.317 3.246 100.000 3.296 0.000 626.900 453.900 335.200                 0.000            
DSCMET_COMPS 2018-04-20 00:15:00 3.308 3.435 3.292 3.385 3.293 100.000 3.309 0.000 627.000 453.900 335.200               0.0800 85.600            
DSCMET_COMPS 2018-04-20 00:10:00 3.433 3.530 3.416 3.457 3.318 100.000 3.436 0.000 627.000 454.100 335.200               0.1400 80.300            
DSCMET_COMPS 2018-04-20 00:05:00 3.547 3.685 3.512 3.516 3.458 100.000 3.549 0.000 627.500 454.600 335.200               0.1600 50.830            
DSCMET_COMPS 2018-04-20 00:00:00 3.530 3.677 3.559 3.569 3.521 100.000 3.532 0.000 627.700 454.600 335.200               0.0820 80.800            
DSCMET_COMPS 2018-04-19 23:55:00 3.593 3.715 3.581 3.628 3.535 100.000 3.595 0.000 627.700 454.700 335.200               0.1610 50.080            
DSCMET_COMPS 2018-04-19 23:50:00 3.579 3.750 3.664 3.692 3.669 100.000 3.582 0.000 628.200 455.300 335.200               0.1110 77.610            
DSCMET_COMPS 2018-04-19 23:45:00 3.768 3.809 3.602 3.771 3.628 100.000 3.776 0.000 628.300 455.300 335.200               0.1750 42.140            
DSCMET_COMPS 2018-04-19 23:40:00 3.851 3.900 3.762 3.857 3.708 100.000 3.854 0.000 628.300 455.600 335.200               0.1080 38.200            
DSCMET_COMPS 2018-04-19 23:35:00 3.837 3.975 3.887 3.917 3.886 100.000 3.840 0.000 628.500 456.000 335.200               0.1020 72.250            
DSCMET_COMPS 2018-04-19 23:30:00 3.861 3.961 3.875 3.991 3.807 100.000 3.863 0.000 629.000 456.000 334.800               0.1740 39.730            
DSCMET_COMPS 2018-04-19 23:25:00 4.020 4.137 4.022 4.061 3.947 100.000 4.024 0.000 629.000 456.400 334.500               0.2010 41.230            
DSCMET_COMPS 2018-04-19 23:20:00 4.044 4.154 4.085 4.131 4.065 100.000 4.048 0.000 629.100 456.600 334.500               0.1900 57.610            
DSCMET_COMPS 2018-04-19 23:15:00 4.256 4.272 4.127 4.204 4.081 100.000 4.262 0.000 629.600 456.700 334.500                 0.000            
DSCMET_COMPS 2018-04-19 23:10:00 4.188 4.295 4.181 4.280 4.117 100.000 4.192 0.000 629.700 456.900 334.500               0.1760 52.320            
DSCMET_COMPS 2018-04-19 23:05:00 4.231 4.367 4.263 4.357 4.218 100.000 4.234 0.000 629.800 457.300 334.500               0.1020 63.320            
DSCMET_COMPS 2018-04-19 23:00:00 4.326 4.439 4.308 4.433 4.341 100.000 4.329 0.000 630.400 457.300 334.500               0.1500 58.330            
DSCMET_COMPS 2018-04-19 22:55:00 4.502 4.541 4.392 4.521 4.327 100.100 4.513 -0.008 630.400 457.300 334.500               0.2130 38.050            
DSCMET_COMPS 2018-04-19 22:50:00 4.592 4.650 4.490 4.610 4.440 100.000 4.598 0.000 630.900 457.800 334.500               0.1730 49.720            
DSCMET_COMPS 2018-04-19 22:45:00 4.648 4.712 4.611 4.698 4.510 100.000 4.652 0.000 631.000 458.000 334.500               0.1840 54.510            
DSCMET_COMPS 2018-04-19 22:40:00 4.689 4.763 4.660 4.787 4.624 100.000 4.692 0.000 631.000 458.100 334.500               0.1080 80.200            
DSCMET_COMPS 2018-04-19 22:35:00 4.763 4.854 4.742 4.876 4.731 100.000 4.766 0.000 631.000 458.600 334.400               0.1490 47.030            
DSCMET_COMPS 2018-04-19 22:30:00 4.889 4.944 4.852 4.962 4.913 100.000 4.895 0.000 631.300 458.700 333.900               0.2250 30.170            
DSCMET_COMPS 2018-04-19 22:25:00 4.982 5.042 4.913 5.050 4.918 100.000 4.987 0.000 631.700 458.700 333.800               0.2180 41.950            
DSCMET_COMPS 2018-04-19 22:20:00 5.109 5.159 5.037 5.134 4.954 100.000 5.113 0.000 631.700 459.100 333.800               0.1960 35.060            
DSCMET_COMPS 2018-04-19 22:15:00 5.181 5.248 5.140 5.208 5.033 100.000 5.186 0.000 631.700 459.400 333.800               0.2160 52.420            
DSCMET_COMPS 2018-04-19 22:10:00 5.226 5.306 5.223 5.281 5.087 100.000 5.231 0.000 632.000 459.400 333.800                 0.000            
DSCMET_COMPS 2018-04-19 22:05:00 5.333 5.344 5.271 5.361 5.130 100.100 5.345 -0.009 632.400 459.600 333.500               0.2020 44.290            
DSCMET_COMPS 2018-04-19 22:00:00 5.375 5.442 5.344 5.449 5.277 100.000 5.381 0.000 632.400 460.000 333.200               0.1590 35.060            
DSCMET_COMPS 2018-04-19 21:55:00 5.420 5.523 5.460 5.533 5.393 100.000 5.426 0.000 632.400 460.000 333.200               0.1490 81.800            
DSCMET_COMPS 2018-04-19 21:50:00 5.458 5.610 5.527 5.610 5.550 100.000 5.462 0.000 632.600 460.100 333.200               0.1720 54.170            
DSCMET_COMPS 2018-04-19 21:45:00 5.541 5.683 5.553 5.693 5.594 100.000 5.544 0.000 633.000 460.600 333.100               0.1640 64.320            
DSCMET_COMPS 2018-04-19 21:40:00 5.681 5.790 5.667 5.775 5.585 100.000 5.686 0.000 633.000 460.500 333.100               0.2390 351.900            
DSCMET_COMPS 2018-04-19 21:35:00 5.742 5.867 5.763 5.858 5.670 100.000 5.750 0.000 633.100 460.700 333.100               0.0950 74.610            
DSCMET_COMPS 2018-04-19 21:30:00 5.807 5.943 5.812 5.948 5.841 100.000 5.813 0.000 633.000 460.700 333.000               0.0880 72.460            
DSCMET_COMPS 2018-04-19 21:25:00 5.871 5.972 5.883 6.041 5.941 100.000 5.877 0.000 633.300 460.900 332.500               0.1570 2.050            
DSCMET_COMPS 2018-04-19 21:20:00 5.979 6.088 5.997 6.143 5.951 100.000 5.985 0.000 633.600 461.200 332.500               0.1570 11.530            
DSCMET_COMPS 2018-04-19 21:15:00 6.050 6.199 6.075 6.241 6.111 100.000 6.055 0.000 633.700 461.400 332.500               0.1400 51.380            
DSCMET_COMPS 2018-04-19 21:10:00 6.254 6.324 6.191 6.344 6.191 100.100 6.267 -0.010 633.700 461.400 332.500               0.2700 8.910            
DSCMET_COMPS 2018-04-19 21:05:00 6.265 6.426 6.332 6.440 6.254 100.000 6.271 0.000 633.700 461.400 332.500                 0.000            
DSCMET_COMPS 2018-04-19 21:00:00 6.306 6.531 6.362 6.533 6.423 100.000 6.311 0.000 633.700 461.400 332.500                 0.000            
DSCMET_COMPS 2018-04-19 20:55:00 6.452 6.566 6.415 6.625 6.466 100.000 6.457 0.000 634.000 461.400 332.400               0.2650 2.946            
DSCMET_COMPS 2018-04-19 20:50:00 6.539 6.657 6.573 6.723 6.562 100.000 6.545 0.000 634.400 461.600 332.300               0.1500 10.700            
DSCMET_COMPS 2018-04-19 20:45:00 6.680 6.749 6.657 6.826 6.682 100.000 6.685 0.000 634.300 462.000 332.100               0.1400 23.710            
DSCMET_COMPS 2018-04-19 20:40:00 6.772 6.857 6.795 6.935 6.742 100.000 6.780 0.000 634.300 462.000 332.000               0.1380 47.610            
DSCMET_COMPS 2018-04-19 20:35:00 6.825 6.967 6.903 7.035 6.908 100.000 6.831 0.000 634.400 462.000 331.900               0.1220 33.910            
DSCMET_COMPS 2018-04-19 20:30:00 6.921 7.044 6.970 7.132 7.012 100.000 6.926 0.000 634.400 462.000 331.800               0.1460 20.170            
DSCMET_COMPS 2018-04-19 20:25:00 7.033 7.131 7.078 7.231 7.169 100.000 7.039 0.000 635.000 462.200 331.800               0.2160 338.100            
DSCMET_COMPS 2018-04-19 20:20:00 7.104 7.233 7.175 7.332 7.239 100.000 7.110 0.000 635.000 462.400 331.800               0.2390 331.700            
DSCMET_COMPS 2018-04-19 20:15:00 7.240 7.330 7.308 7.427 7.363 100.000 7.248 0.000 635.000 462.700 331.800               0.1950 359.900            
DSCMET_COMPS 2018-04-19 20:10:00 7.353 7.443 7.362 7.525 7.465 100.000 7.363 0.000 635.000 462.700 331.800               0.2220 331.500            
DSCMET_COMPS 2018-04-19 20:05:00 7.407 7.567 7.519 7.618 7.543 100.000 7.413 0.000 635.200 462.700 331.800               0.2050 339.900            
DSCMET_COMPS 2018-04-19 20:00:00 7.492 7.640 7.552 7.705 7.588 100.000 7.498 0.000 635.700 462.700 331.800               0.1360 345.500            
DSCMET_COMPS 2018-04-19 19:55:00 7.595 7.768 7.696 7.784 7.714 100.000 7.601 0.000 635.700 463.200 331.800                 0.000            
DSCMET_COMPS 2018-04-19 19:50:00 7.592 7.796 7.742 7.858 7.802 100.000 7.598 0.000 635.700 463.400 332.000               0.0740 7.330            
DSCMET_COMPS 2018-04-19 19:45:00 7.648 7.847 7.805 7.931 7.917 100.000 7.655 0.000 635.700 463.500 332.400               0.1320 82.000            
DSCMET_COMPS 2018-04-19 19:40:00 7.714 7.896 7.850 8.010 7.960 100.000 7.722 0.000 635.700 463.900 332.400               0.0880 66.610            
DSCMET_COMPS 2018-04-19 19:35:00 7.765 7.919 7.875 8.100 8.040 100.000 7.771 0.000 635.800 464.000 332.400               0.1410 334.100            
DSCMET_COMPS 2018-04-19 19:30:00 7.795 7.980 7.935 8.210 8.120 100.000 7.802 0.000 636.400 464.300 332.400               0.1730 6.597            
DSCMET_COMPS 2018-04-19 19:25:00 7.873 8.080 7.998 8.330 8.230 100.000 7.879 0.000 636.400 464.800 333.000               0.1660 326.000            
DSCMET_COMPS 2018-04-19 19:20:00 8.050 8.160 8.050 8.460 8.350 100.100 8.070 -0.011 636.400 465.200 333.100               0.1730 304.500            
DSCMET_COMPS 2018-04-19 19:15:00 8.110 8.250 8.180 8.580 8.480 100.000 8.110 0.000 637.000 465.400 333.100               0.1940 336.800            
DSCMET_COMPS 2018-04-19 19:10:00 8.210 8.380 8.270 8.730 8.540 100.000 8.220 0.000 637.200 466.000 333.800               0.1850 306.500            
DSCMET_COMPS 2018-04-19 19:05:00 8.300 8.520 8.410 8.880 8.710 100.000 8.310 0.000 637.700 466.300 333.800               0.1610 297.600            
DSCMET_COMPS 2018-04-19 19:00:00 8.350 8.630 8.540 9.040 8.810 100.000 8.360 -0.000 637.800 466.800 333.900               0.1510 326.600            
DSCMET_COMPS 2018-04-19 18:55:00 8.520 8.770 8.730 9.200 8.940 100.000 8.530 0.000 638.400 467.400 334.500               0.1800 4.373            
DSCMET_COMPS 2018-04-19 18:50:00 8.730 8.910 8.810 9.370 9.190 99.600 8.680 0.045 639.000 468.000 334.600               0.1680 315.400            
DSCMET_COMPS 2018-04-19 18:45:00 8.720 9.050 9.040 9.550 9.250 100.000 8.730 0.000 639.500 468.300 335.100                 0.000            
DSCMET_COMPS 2018-04-19 18:40:00 8.920 9.230 9.210 9.720 9.430 100.000 8.930 0.000 639.800 468.800 335.500               0.1080 75.550            
DSCMET_COMPS 2018-04-19 18:35:00 9.130 9.410 9.350 9.890 9.680 100.000 9.140 -0.000 639.800 469.100 335.800               0.0460 288.700            
DSCMET_COMPS 2018-04-19 18:30:00 9.250 9.540 9.480 10.050 9.800 100.000 9.260 0.000 639.800 469.700 336.500               0.1070 279.400            
DSCMET_COMPS 2018-04-19 18:25:00 9.260 9.700 9.600 10.200 9.980 100.000 9.270 0.000 639.800 470.300 337.000               0.0820 359.200            
DSCMET_COMPS 2018-04-19 18:20:00 9.260 9.750 9.760 10.380 10.070 100.000 9.270 0.000 639.800 470.800 337.700               0.1200 74.750            
DSCMET_COMPS 2018-04-19 18:15:00 9.430 9.880 9.890 10.540 10.240 100.000 9.440 0.000 639.800 471.500 338.300               0.1180 91.000            
DSCMET_COMPS 2018-04-19 18:10:00 9.510 9.990 9.980 10.710 10.520 100.000 9.520 -0.000 639.800 472.300 339.300               0.0210 68.940            
DSCMET_COMPS 2018-04-19 18:05:00 9.600 10.040 10.060 10.900 10.560 100.000 9.610 0.000 639.800 473.300 340.300               0.0820 239.300            
DSCMET_COMPS 2018-04-19 18:00:00 9.670 10.150 10.180 11.090 10.680 100.000 9.680 0.000 640.300 474.200 341.300               0.0880 280.800            
DSCMET_COMPS 2018-04-19 17:55:00 9.730 10.300 10.330 11.330 10.910 100.000 9.740 0.000 640.400 475.300 342.300               0.1000 218.400            
DSCMET_COMPS 2018-04-19 17:50:00 9.840 10.430 10.500 11.570 11.170 100.000 9.850 -0.000 640.400 476.300 343.600               0.1270 249.400            
DSCMET_COMPS 2018-04-19 17:45:00 9.940 10.600 10.720 11.830 11.350 100.000 9.950 0.000 640.500 477.300 344.800               0.0850 278.700            
DSCMET_COMPS 2018-04-19 17:40:00 10.080 10.800 10.930 12.070 11.650 100.000 10.090 0.000 640.800 478.400 345.800                 0.000            
DSCMET_COMPS 2018-04-19 17:35:00 10.290 10.970 11.230 12.280 12.060 100.000 10.300 0.000 641.100 479.400 347.000               0.1420 248.500            
DSCMET_COMPS 2018-04-19 17:30:00 10.270 11.080 11.410 12.460 12.380 100.000 10.280 0.000 641.700 480.600 348.300               0.1830 292.200            
DSCMET_COMPS 2018-04-19 17:25:00 10.350 11.170 11.530 12.590 12.700 99.900 10.340 0.013 641.900 481.900 349.700               0.1490 272.700            
DSCMET_COMPS 2018-04-19 17:20:00 10.420 11.190 11.610 12.680 12.830 100.000 10.430 0.000 642.700 483.100 351.500               0.1770 297.600            
DSCMET_COMPS 2018-04-19 17:15:00 10.560 11.240 11.600 12.740 13.170 100.000 10.570 0.000 643.100 484.200 353.200               0.1670 245.400            
DSCMET_COMPS 2018-04-19 17:10:00 10.660 11.220 11.630 12.780 13.160 100.000 10.670 0.000 643.800 485.000 354.900               0.0800 279.500            
DSCMET_COMPS 2018-04-19 17:05:00 10.630 11.190 11.680 12.760 13.220 100.000 10.640 0.000 643.800 485.700 356.100               0.0410 280.200            
DSCMET_COMPS 2018-04-19 17:00:00 10.570 11.180 11.710 12.700 13.400 100.000 10.580 0.000 644.400 486.100 357.100               0.1010 84.200            
DSCMET_COMPS 2018-04-19 16:55:00 10.540 11.100 11.530 12.650 13.130 100.000 10.550 0.000 644.500 486.800 358.000               0.1750 147.300            
DSCMET_COMPS 2018-04-19 16:50:00 10.500 11.080 11.480 12.620 12.960 100.000 10.500 0.000 645.100 487.200 359.100               0.1610 304.400            
DSCMET_COMPS 2018-04-19 16:45:00 10.530 11.110 11.580 12.600 13.040 100.000 10.530 0.000 645.500 487.800 359.900               0.0960 102.800            
DSCMET_COMPS 2018-04-19 16:40:00 10.430 10.940 11.430 12.620 12.600 100.100 10.450 -0.013 645.900 488.300 360.700               0.0440 289.000            
DSCMET_COMPS 2018-04-19 16:35:00 10.470 10.990 11.480 12.670 12.520 100.000 10.480 0.000 646.400 488.700 361.600                 0.000            
DSCMET_COMPS 2018-04-19 16:30:00 10.380 11.010 11.470 12.720 12.520 100.000 10.390 0.000 647.000 489.300 362.700                 0.000            
DSCMET_COMPS 2018-04-19 16:25:00 10.400 11.110 11.570 12.750 12.860 100.000 10.410 0.000 647.400 489.800 363.700               0.1410 87.900            
DSCMET_COMPS 2018-04-19 16:20:00 10.510 11.080 11.620 12.770 12.600 100.000 10.520 0.000 647.900 490.500 364.700               0.1500 66.350            
DSCMET_COMPS 2018-04-19 16:15:00 10.540 11.120 11.610 12.820 12.650 100.000 10.550 0.000 648.400 491.000 365.800               0.1830 96.300            
DSCMET_COMPS 2018-04-19 16:10:00 10.500 11.090 11.600 12.890 12.590 100.000 10.500 0.000 648.800 491.400 367.000               0.1420 74.110            
DSCMET_COMPS 2018-04-19 16:05:00 10.550 11.010 11.500 13.010 12.860 100.000 10.550 0.000 649.300 491.900 368.300               0.1780 98.600            
DSCMET_COMPS 2018-04-19 16:00:00 10.660 11.200 11.840 13.130 12.990 100.000 10.680 0.000 649.600 492.100 369.600               0.1770 119.400            
DSCMET_COMPS 2018-04-19 15:55:00 10.610 11.260 11.820 13.230 12.800 100.000 10.620 0.000 649.900 492.800 371.800               0.2880 116.400            
DSCMET_COMPS 2018-04-19 15:50:00 10.630 11.190 11.900 13.330 13.070 100.000 10.640 0.000 650.500 493.400 372.900               0.1940 65.600            
DSCMET_COMPS 2018-04-19 15:45:00 10.700 11.530 12.560 13.330 13.490 100.000 10.710 0.000 650.900 494.000 374.900               0.3060 106.500            
DSCMET_COMPS 2018-04-19 15:40:00 10.650 11.430 12.230 13.270 13.690 100.000 10.660 0.000 651.500 495.100 379.900               0.3990 90.400            
DSCMET_COMPS 2018-04-19 15:35:00 10.640 11.400 12.380 13.240 13.600 100.000 10.650 0.000 652.200 495.900 382.200               0.2590 96.200            
DSCMET_COMPS 2018-04-19 15:30:00 10.710 11.350 12.020 13.220 13.400 100.000 10.730 0.000 653.000 496.600 385.400               0.3180 99.500            
DSCMET_COMPS 2018-04-19 15:25:00 10.770 11.300 11.840 13.190 13.130 100.000 10.780 0.000 653.700 497.000 386.700                 0.000            
DSCMET_COMPS 2018-04-19 15:20:00 10.750 11.340 11.970 13.180 13.300 100.000 10.760 0.000 654.300 497.300 387.700               0.1700 86.900            
DSCMET_COMPS 2018-04-19 15:15:00 10.690 11.370 12.040 13.160 13.380 100.000 10.700 0.000 655.200 498.000 389.100               0.2020 120.300            
DSCMET_COMPS 2018-04-19 15:10:00 10.640 11.170 11.740 13.140 13.290 100.000 10.650 0.000 656.300 498.400 390.200               0.2020 63.960            
DSCMET_COMPS 2018-04-19 15:05:00 10.550 11.200 11.810 13.090 13.740 100.000 10.560 0.000 657.600 499.100 391.700               0.2140 105.200            
DSCMET_COMPS 2018-04-19 15:00:00 10.510 11.190 11.860 12.980 13.360 100.000 10.510 0.000 658.800 499.500 393.600               0.1510 103.100            
DSCMET_COMPS 2018-04-19 14:55:00 10.420 11.070 11.800 12.860 13.440 100.000 10.430 0.000 660.100 500.100 394.900               0.1140 75.160            
DSCMET_COMPS 2018-04-19 14:50:00 10.350 11.050 11.720 12.750 13.400 100.000 10.360 0.000 661.600 500.700 396.600               0.3520 90.100            
DSCMET_COMPS 2018-04-19 14:45:00 10.310 10.830 11.400 12.690 12.800 100.000 10.320 0.000 663.200 500.900 398.200               0.1450 92.900            
DSCMET_COMPS 2018-04-19 14:40:00 10.240 10.770 11.360 12.670 12.640 100.000 10.250 0.000 666.400 501.400 399.300               0.1590 98.500            
DSCMET_COMPS 2018-04-19 14:35:00 10.150 10.700 11.260 12.680 12.640 100.000 10.160 0.000 682.000 502.000 400.400               0.1370 105.600            
DSCMET_COMPS 2018-04-19 14:30:00 10.080 10.690 11.260 12.690 12.570 100.000 10.090 0.000 683.600 502.200 401.500               0.2280 109.600            
DSCMET_COMPS 2018-04-19 14:25:00 10.120 10.740 11.350 12.690 12.480 100.100 10.140 -0.012 684.300 502.700 402.700               0.1640 87.900            
DSCMET_COMPS 2018-04-19 14:20:00 10.000 10.600 11.190 12.730 12.310 100.000 10.010 0.000 685.100 503.300 403.900               0.1420 101.100            
DSCMET_COMPS 2018-04-19 14:15:00 9.970 10.570 11.220 12.840 12.420 100.000 9.970 0.000 686.100 503.500 405.200                 0.000            
DSCMET_COMPS 2018-04-19 14:10:00 9.940 10.540 11.190 12.980 12.220 100.000 9.940 0.000 686.700 504.100 406.900               0.1860 75.210            
DSCMET_COMPS 2018-04-19 14:05:00 9.970 10.720 11.450 13.120 12.430 100.000 9.980 0.000 687.600 504.700 408.000               0.2720 90.700            
DSCMET_COMPS 2018-04-19 14:00:00 10.250 10.810 11.500 13.250 12.850 100.000 10.260 0.000 687.900 505.400 409.400               0.3550 90.100            
DSCMET_COMPS 2018-04-19 13:55:00 10.540 10.980 11.610 13.360 12.770 100.000 10.560 0.000 688.000 505.500 410.800               0.2670 95.900            
DSCMET_COMPS 2018-04-19 13:50:00 10.760 11.260 11.910 13.430 13.260 100.000 10.770 -0.000 687.900 506.100 411.500               0.2300 95.800            
DSCMET_COMPS 2018-04-19 13:45:00 10.850 11.520 12.390 13.380 13.790 100.000 10.860 0.000 688.300 506.100 413.000               0.2000 98.300            
DSCMET_COMPS 2018-04-19 13:40:00 10.720 11.400 12.390 13.260 13.790 100.000 10.730 0.000 689.000 506.600 415.200               0.1320 71.120            
DSCMET_COMPS 2018-04-19 13:35:00 10.550 11.190 11.980 13.180 13.470 100.000 10.560 0.000 689.700 507.100 417.600               0.2660 101.200            
DSCMET_COMPS 2018-04-19 13:30:00 10.630 11.110 11.780 13.210 13.180 100.000 10.640 0.000 690.500 507.500 419.400               0.2280 122.500            
DSCMET_COMPS 2018-04-19 13:25:00 10.740 11.220 11.750 13.280 12.980 100.000 10.760 0.000 690.800 508.000 421.200               0.2720 116.900            
DSCMET_COMPS 2018-04-19 13:20:00 10.600 11.280 11.860 13.370 13.050 100.000 10.610 0.000 692.000 508.600 423.000               0.1670 47.500            
DSCMET_COMPS 2018-04-19 13:15:00 10.610 11.430 11.850 13.500 13.170 98.700 10.420 0.166 692.900 509.600 425.600               0.1870 103.400            
DSCMET_COMPS 2018-04-19 13:10:00 10.540 11.300 11.730 13.690 12.950 100.000 10.550 0.000 694.400 510.700 427.800                 0.000            
DSCMET_COMPS 2018-04-19 13:05:00 10.680 11.530 11.970 13.910 12.920 99.700 10.650 0.039 694.700 511.500 430.000               0.1260 163.700            
DSCMET_COMPS 2018-04-19 13:00:00 11.020 12.060 12.500 14.160 13.320 95.700 10.360 0.565 695.800 512.800 433.100               0.2500 43.740            
DSCMET_COMPS 2018-04-19 12:55:00 11.380 12.320 12.700 14.410 13.500 96.700 10.890 0.444 697.600 514.500 437.400               0.2150 17.170            
DSCMET_COMPS 2018-04-19 12:50:00 11.390 12.440 13.110 14.560 13.800 99.500 11.330 0.067 699.000 516.200 441.700               0.2980 305.300            
DSCMET_COMPS 2018-04-19 12:45:00 11.180 12.560 13.380 14.480 14.410 99.900 11.170 0.013 700.900 517.400 447.400               0.2930 52.600            
DSCMET_COMPS 2018-04-19 12:40:00 10.730 11.420 12.610 14.220 15.110 99.700 10.700 0.039 704.000 519.000 453.700               0.2450 275.500            
DSCMET_COMPS 2018-04-19 12:35:00 10.670 11.760 12.740 14.010 14.310 99.400 10.590 0.077 706.700 520.100 459.700               0.2320 179.800            
DSCMET_COMPS 2018-04-19 12:30:00 10.580 11.300 12.280 14.000 13.480 100.000 10.590 0.000 708.300 521.600 469.500               0.5970 134.900            
DSCMET_COMPS 2018-04-19 12:25:00 10.850 11.720 12.570 14.100 13.510 99.700 10.810 0.039 708.700 522.100 472.800               0.1940 119.800            
DSCMET_COMPS 2018-04-19 12:20:00 11.050 11.910 12.730 14.150 13.720 99.300 10.950 0.092 709.600 523.000 476.300               0.2560 275.900            
DSCMET_COMPS 2018-04-19 12:15:00 11.030 12.240 13.040 14.110 13.780 99.000 10.880 0.132 711.000 524.500 481.000               0.2570 158.500            
DSCMET_COMPS 2018-04-19 12:10:00 10.680 11.830 13.280 13.960 14.300 99.800 10.660 0.026 713.300 525.600 484.400               0.2870 348.500            
DSCMET_COMPS 2018-04-19 12:05:00 10.370 11.380 12.710 13.690 13.860 100.000 10.380 0.000 714.700 527.400 494.500               0.2070 83.200            
DSCMET_COMPS 2018-04-19 12:00:00 10.170 11.080 12.210 13.490 13.500 99.500 10.110 0.062 716.000 528.200 501.900                 0.000            
DSCMET_COMPS 2018-04-19 11:55:00 10.220 11.240 12.170 13.260 13.100 100.000 10.230 0.000 717.100 529.300 505.700               0.3450 167.500            
DSCMET_COMPS 2018-04-19 11:50:00 10.310 11.640 12.130 12.980 13.370 97.900 9.990 0.263 718.200 530.400 508.500               0.3780 140.900            
DSCMET_COMPS 2018-04-19 11:45:00 10.000 10.950 11.870 12.550 13.500 100.000 10.010 0.000 720.600 532.000 510.800               0.3940 106.100            
DSCMET_COMPS 2018-04-19 11:40:00 9.700 10.580 11.510 12.190 12.890 100.000 9.710 0.000 721.700 532.800 512.900               0.3770 108.200            
DSCMET_COMPS 2018-04-19 11:35:00 9.560 10.310 10.960 12.040 12.200 100.000 9.570 -0.000 722.000 533.600 514.900               0.1890 86.600            
DSCMET_COMPS 2018-04-19 11:30:00 9.590 10.500 10.950 12.120 11.790 99.900 9.580 0.012 722.600 534.400 516.600               0.1970 89.700            
DSCMET_COMPS 2018-04-19 11:25:00 9.820 10.590 11.030 12.200 11.990 99.600 9.770 0.049 722.600 535.100 518.000               0.3040 337.100            
DSCMET_COMPS 2018-04-19 11:20:00 9.910 10.900 11.340 12.090 12.460 96.500 9.390 0.427 723.500 535.600 519.300               0.2570 307.600            
DSCMET_COMPS 2018-04-19 11:15:00 9.620 10.530 11.350 11.800 12.610 100.000 9.640 0.000 725.400 537.000 521.800               0.4200 27.480            
DSCMET_COMPS 2018-04-19 11:10:00 9.310 9.900 10.660 11.470 12.740 100.000 9.320 0.000 726.000 538.100 523.800               0.3210 255.800            
DSCMET_COMPS 2018-04-19 11:05:00 9.020 9.750 10.600 11.120 12.420 100.000 9.020 0.000 726.000 538.700 525.200               0.2330 250.700            
DSCMET_COMPS 2018-04-19 11:00:00 8.730 9.620 10.230 10.840 11.900 100.000 8.740 0.000 729.200 539.000 526.100               0.2300 274.600            
DSCMET_COMPS 2018-04-19 10:55:00 8.570 9.370 9.950 10.650 11.440 100.000 8.570 0.000 733.400 540.000 527.100                 0.000            
DSCMET_COMPS 2018-04-19 10:50:00 8.670 9.540 10.070 10.460 11.370 100.000 8.680 0.000 737.000 540.100 527.900                 0.000            
DSCMET_COMPS 2018-04-19 10:45:00 8.430 9.540 10.070 10.170 11.600 100.000 8.440 -0.000 738.900 541.000 529.200               0.2140 347.900            
DSCMET_COMPS 2018-04-19 10:40:00 8.350 9.270 9.750 9.860 11.110 100.000 8.350 -0.000 739.800 545.000 530.500               0.2520 265.000            
DSCMET_COMPS 2018-04-19 10:35:00 8.040 9.120 9.570 9.520 11.020 100.000 8.050 0.000 741.500 550.000 532.100               0.3100 309.200            
DSCMET_COMPS 2018-04-19 10:30:00 7.618 8.600 9.160 9.180 10.820 100.000 7.624 0.000 742.700 557.900 534.700               0.3360 289.600            
DSCMET_COMPS 2018-04-19 10:25:00 7.366 8.310 8.780 8.840 10.570 100.000 7.372 0.000 743.900 563.200 537.000               0.1870 289.100            
DSCMET_COMPS 2018-04-19 10:20:00 7.271 8.110 8.540 8.530 10.070 100.000 7.282 0.000 744.500 566.400 539.000               0.1080 245.600            
DSCMET_COMPS 2018-04-19 10:15:00 6.880 7.698 8.220 8.260 9.800 100.000 6.889 0.000 745.200 569.300 541.700               0.2250 331.100            
DSCMET_COMPS 2018-04-19 10:10:00 6.494 7.250 7.821 8.020 9.520 100.000 6.500 0.000 746.000 570.800 543.900               0.1590 325.200            
DSCMET_COMPS 2018-04-19 10:05:00 6.256 6.862 7.390 7.813 9.050 100.000 6.260 0.000 746.500 571.300 545.700               0.0530 266.700            
DSCMET_COMPS 2018-04-19 10:00:00 6.205 6.783 7.550 7.579 8.590 100.000 6.209 0.000 747.100 571.900 546.600               0.1850 90.600            
DSCMET_COMPS 2018-04-19 09:55:00 6.114 6.585 7.428 7.297 8.380 100.000 6.117 0.000 747.500 572.700 549.300               0.2930 91.500            
DSCMET_COMPS 2018-04-19 09:50:00 5.791 6.440 6.964 7.067 8.210 100.000 5.796 0.000 747.800 573.100 551.800               0.3530 93.300            
DSCMET_COMPS 2018-04-19 09:45:00 5.601 6.165 6.720 6.873 7.895 100.000 5.605 0.000 748.400 573.400 553.600                 0.000            
DSCMET_COMPS 2018-04-19 09:40:00 5.272 5.988 6.410 6.671 7.546 100.000 5.273 0.000 748.900 576.700 555.600               0.2730 91.500            
DSCMET_COMPS 2018-04-19 09:35:00 5.196 5.732 6.234 6.427 7.214 100.000 5.199 0.000 749.300 579.300 557.400               0.2270 94.300            
DSCMET_COMPS 2018-04-19 09:30:00 5.053 5.613 5.978 6.178 7.210 100.000 5.055 0.000 749.800 580.500 559.400               0.2350 93.800            
DSCMET_COMPS 2018-04-19 09:25:00 4.981 5.409 5.763 6.034 6.868 100.000 4.990 0.000 750.100 581.300 560.800               0.2560 91.600            
DSCMET_COMPS 2018-04-19 09:20:00 4.913 5.214 5.532 5.910 6.554 100.000 4.917 0.000 750.500 581.800 562.100               0.2170 102.900            
DSCMET_COMPS 2018-04-19 09:15:00 4.872 5.216 5.569 5.784 6.401 100.000 4.876 0.000 750.500 582.200 563.600               0.2770 110.400            
DSCMET_COMPS 2018-04-19 09:10:00 4.930 5.121 5.375 5.657 6.214 100.000 4.931 0.000 750.900 582.700 566.100               0.2940 104.600            
DSCMET_COMPS 2018-04-19 09:05:00 4.869 5.017 5.177 5.547 5.913 100.000 4.869 0.000 751.100 583.300 567.900               0.2810 102.900            
DSCMET_COMPS 2018-04-19 09:00:00 4.763 5.022 5.042 5.454 5.508 100.000 4.764 0.000 751.100 583.500 569.600               0.2320 106.400            
DSCMET_COMPS 2018-04-19 08:55:00 4.723 4.951 4.970 5.362 5.329 100.000 4.728 0.000 751.100 584.000 570.800               0.2060 137.300            
DSCMET_COMPS 2018-04-19 08:50:00 4.577 4.899 4.885 5.275 5.317 100.000 4.580 0.000 751.100 584.300 572.100               0.2420 144.600            
DSCMET_COMPS 2018-04-19 08:45:00 4.448 4.699 4.769 5.173 5.251 100.000 4.450 0.000 751.800 585.300 574.100               0.2270 123.300            
DSCMET_COMPS 2018-04-19 08:40:00 4.367 4.652 4.708 5.046 4.989 100.000 4.367 0.000 752.400 586.300 576.200                 0.000            
DSCMET_COMPS 2018-04-19 08:35:00 4.377 4.692 4.647 4.922 4.937 100.000 4.376 0.000 752.800 587.200 577.700               0.1800 156.900            
DSCMET_COMPS 2018-04-19 08:30:00 4.381 4.677 4.666 4.789 4.859 100.000 4.389 0.000 753.600 588.600 579.400               0.1640 60.110            
DSCMET_COMPS 2018-04-19 08:25:00 4.279 4.581 4.500 4.663 4.745 100.000 4.283 0.000 754.800 590.300 582.300               0.0980 85.200            
DSCMET_COMPS 2018-04-19 08:20:00 4.180 4.498 4.403 4.546 4.673 100.000 4.183 0.000 755.900 591.800 584.300               0.1110 89.100            
DSCMET_COMPS 2018-04-19 08:15:00 4.061 4.414 4.306 4.438 4.561 100.000 4.061 0.000 756.200 593.100 586.000               0.0530 89.000            
DSCMET_COMPS 2018-04-19 08:10:00 3.959 4.287 4.208 4.337 4.416 100.000 3.958 0.000 757.000 594.400 587.700               0.0130 117.200            
DSCMET_COMPS 2018-04-19 08:05:00 3.888 4.194 4.047 4.252 4.323 100.000 3.890 0.000 757.900 595.700 589.300               0.0580 86.500            
DSCMET_COMPS 2018-04-19 08:00:00 3.878 4.098 3.975 4.176 4.236 100.000 3.879 0.000 758.600 597.200 590.800               0.0460 89.500            
DSCMET_COMPS 2018-04-19 07:55:00 3.783 4.019 3.923 4.106 4.170 100.000 3.784 0.000 759.000 598.500 592.100               0.0580 90.900            
DSCMET_COMPS 2018-04-19 07:50:00 3.780 3.976 3.852 4.047 4.012 100.000 3.780 0.000 759.500 599.300 593.400               0.0660 90.300            
DSCMET_COMPS 2018-04-19 07:45:00 3.750 3.911 3.819 3.994 3.985 100.000 3.751 0.000 759.500 600.000 594.400               0.1650 90.100            
DSCMET_COMPS 2018-04-19 07:40:00 3.814 3.927 3.808 3.938 4.024 100.000 3.822 0.000 759.700 600.600 595.500               0.1700 90.100            
DSCMET_COMPS 2018-04-19 07:35:00 3.711 3.893 3.758 3.876 3.905 100.000 3.714 0.000 760.000 601.200 596.200                 0.000            
DSCMET_COMPS 2018-04-19 07:30:00 3.682 3.908 3.810 3.814 3.897 100.000 3.681 0.000 760.200 601.600 597.000               0.0580 83.700            
DSCMET_COMPS 2018-04-19 07:25:00 3.589 3.836 3.824 3.720 3.943 100.000 3.589 0.000 760.700 601.900 597.800               0.0810 85.400            
DSCMET_COMPS 2018-04-19 07:20:00 3.457 3.726 3.752 3.643 3.832 100.000 3.460 0.000 761.300 602.600 598.300               0.0210 86.100            
DSCMET_COMPS 2018-04-19 07:15:00 3.408 3.643 3.633 3.566 3.774 100.000 3.410 0.000 761.400 602.900 599.200               0.0790 31.990            
DSCMET_COMPS 2018-04-19 07:10:00 3.316 3.547 3.487 3.503 3.670 100.000 3.317 0.000 761.900 603.700 599.900               0.0140 90.000            
DSCMET_COMPS 2018-04-19 07:05:00 3.280 3.498 3.454 3.472 3.580 100.000 3.280 0.000 762.300 604.300 600.500               0.1600 227.300            
DSCMET_COMPS 2018-04-19 07:00:00 3.368 3.513 3.406 3.478 3.466 100.000 3.367 0.000 762.700 604.900 601.300               0.0790 240.900            
DSCMET_COMPS 2018-04-19 06:55:00 3.439 3.552 3.454 3.464 3.442 100.000 3.446 0.000 762.700 605.300 602.100               0.0340 273.300            
DSCMET_COMPS 2018-04-19 06:50:00 3.393 3.516 3.424 3.416 3.485 100.000 3.397 0.000 762.800 605.300 602.600               0.0440 273.200            
DSCMET_COMPS 2018-04-19 06:45:00 3.287 3.451 3.367 3.363 3.432 100.000 3.287 0.000 763.300 605.300 602.600               0.0830 274.700            
DSCMET_COMPS 2018-04-19 06:40:00 3.262 3.397 3.360 3.320 3.387 100.000 3.262 0.000 763.400 605.300 602.600               0.0340 262.800            
DSCMET_COMPS 2018-04-19 06:35:00 3.190 3.354 3.315 3.269 3.368 100.000 3.188 0.000 763.400 605.900 603.000               0.0430 88.600            
DSCMET_COMPS 2018-04-19 06:30:00 3.160 3.322 3.265 3.220 3.290 100.000 3.161 0.000 763.800 606.000 603.300                 0.000            
DSCMET_COMPS 2018-04-19 06:25:00 3.167 3.276 3.212 3.163 3.276 100.000 3.169 0.000 764.100 606.100 603.300                 0.000            
DSCMET_COMPS 2018-04-19 06:20:00 3.064 3.252 3.178 3.107 3.257 100.000 3.064 0.000 764.100 606.500 603.300               0.0380 249.700            
DSCMET_COMPS 2018-04-19 06:15:00 3.064 3.214 3.148 3.049 3.180 100.000 3.064 0.000 764.200 606.700 603.800               0.0420 209.100            
DSCMET_COMPS 2018-04-19 06:10:00 3.027 3.184 3.088 2.995 3.141 100.000 3.027 0.000 764.700 607.200 603.900               0.0840 122.500            
DSCMET_COMPS 2018-04-19 06:05:00 3.070 3.143 3.040 2.944 3.075 100.000 3.077 0.000 764.800 606.700 603.900               0.1210 111.900            
DSCMET_COMPS 2018-04-19 06:00:00 3.028 3.104 2.990 2.902 3.019 100.000 3.031 0.000 764.800 606.700 603.900               0.1630 89.300            
DSCMET_COMPS 2018-04-19 05:55:00 2.963 3.062 2.939 2.864 2.985 100.000 2.963 0.000 764.900 606.700 604.000               0.2060 87.100            
DSCMET_COMPS 2018-04-19 05:50:00 2.914 3.003 2.896 2.831 2.920 100.000 2.914 0.000 765.500 607.000 604.600               0.1490 86.900            
DSCMET_COMPS 2018-04-19 05:45:00 2.886 2.966 2.861 2.800 2.913 100.000 2.885 0.000 765.500 607.300 604.600               0.0970 88.900            
DSCMET_COMPS 2018-04-19 05:40:00 2.857 2.946 2.834 2.763 2.862 100.000 2.861 0.000 765.700 607.300 604.600               0.0310 241.200            
DSCMET_COMPS 2018-04-19 05:35:00 2.782 2.909 2.782 2.740 2.811 100.000 2.782 0.000 766.100 607.500 605.000               0.0650 85.600            
DSCMET_COMPS 2018-04-19 05:30:00 2.742 2.874 2.757 2.722 2.779 100.000 2.742 -0.000 766.200 608.000 605.300               0.1000 58.870            
DSCMET_COMPS 2018-04-19 05:25:00 2.746 2.868 2.755 2.705 2.740 100.000 2.746 0.000 766.800 608.000 605.300               0.1260 128.600            
DSCMET_COMPS 2018-04-19 05:20:00 2.760 2.888 2.782 2.682 2.732 100.000 2.763 0.000 766.900 608.000 605.300                 0.000            
DSCMET_COMPS 2018-04-19 05:15:00 2.808 2.860 2.726 2.665 2.697 100.000 2.815 0.000 767.200 608.100 605.300               0.0530 100.300            
DSCMET_COMPS 2018-04-19 05:10:00 2.704 2.832 2.683 2.650 2.666 100.000 2.706 0.000 767.700 608.600 605.300               0.0440 84.000            
DSCMET_COMPS 2018-04-19 05:05:00 2.685 2.797 2.670 2.637 2.666 100.000 2.683 0.000 768.500 608.500 605.500               0.0920 34.000            
DSCMET_COMPS 2018-04-19 05:00:00 2.685 2.786 2.667 2.617 2.655 100.000 2.686 0.000 768.400 608.700 606.000               0.1710 144.600            
DSCMET_COMPS 2018-04-19 04:55:00 2.661 2.754 2.638 2.604 2.640 100.000 2.662 0.000 766.800 608.700 606.000               0.0900 88.000            
DSCMET_COMPS 2018-04-19 04:50:00 2.701 2.773 2.647 2.590 2.611 100.000 2.703 0.000 766.800 608.900 606.000               0.1070 55.590            
DSCMET_COMPS 2018-04-19 04:45:00 2.659 2.802 2.670 2.573 2.589 100.000 2.660 -0.000 766.900 609.400 606.000               0.0770 260.800            
DSCMET_COMPS 2018-04-19 04:40:00 2.661 2.777 2.640 2.560 2.568 100.000 2.661 0.000 767.400 609.400 606.000               0.0720 222.500            
DSCMET_COMPS 2018-04-19 04:35:00 2.580 2.723 2.595 2.543 2.568 100.000 2.581 -0.000 767.500 609.400 606.000               0.0720 82.500            
DSCMET_COMPS 2018-04-19 04:30:00 2.622 2.683 2.548 2.540 2.567 100.000 2.630 0.000 767.600 609.400 606.000               0.1100 83.700            
DSCMET_COMPS 2018-04-19 04:25:00 2.639 2.708 2.511 2.547 2.521 100.000 2.641 -0.000 768.100 609.400 606.400               0.0330 322.600            
DSCMET_COMPS 2018-04-19 04:20:00 2.610 2.705 2.558 2.547 2.554 100.000 2.609 0.000 768.200 609.700 606.700               0.0830 274.400            
DSCMET_COMPS 2018-04-19 04:15:00 2.551 2.682 2.582 2.542 2.584 100.000 2.552 0.000 768.200 610.100 606.700                 0.000            
DSCMET_COMPS 2018-04-19 04:10:00 2.602 2.673 2.554 2.538 2.558 100.000 2.602 0.000 768.300 610.100 606.700               0.0520 80.300            
DSCMET_COMPS 2018-04-19 04:05:00 2.633 2.716 2.599 2.540 2.517 100.000 2.635 0.000 768.900 610.200 606.700               0.1110 102.500            
DSCMET_COMPS 2018-04-19 04:00:00 2.582 2.732 2.596 2.538 2.525 100.000 2.582 0.000 768.900 610.600 606.700               0.0780 283.800            
DSCMET_COMPS 2018-04-19 03:55:00 2.621 2.693 2.582 2.528 2.536 100.000 2.621 -0.000 768.900 610.800 606.700               0.1640 148.900            
DSCMET_COMPS 2018-04-19 03:50:00 2.657 2.705 2.583 2.513 2.508 100.000 2.657 0.000 769.500 610.700 606.700               0.1050 89.900            
DSCMET_COMPS 2018-04-19 03:45:00 2.620 2.717 2.598 2.495 2.502 100.000 2.627 0.000 769.500 610.700 606.700               0.1100 76.250            
DSCMET_COMPS 2018-04-19 03:40:00 2.570 2.667 2.542 2.492 2.464 100.000 2.572 0.000 769.600 610.800 606.700               0.0510 106.100            
DSCMET_COMPS 2018-04-19 03:35:00 2.549 2.643 2.510 2.492 2.462 100.000 2.548 0.000 769.500 610.800 606.700               0.1110 97.300            
DSCMET_COMPS 2018-04-19 03:30:00 2.553 2.663 2.520 2.482 2.443 100.000 2.553 0.000 769.600 611.200 606.700               0.1400 80.400            
DSCMET_COMPS 2018-04-19 03:25:00 2.544 2.639 2.499 2.479 2.479 100.000 2.546 -0.000 769.500 611.400 606.700               0.1680 100.200            
DSCMET_COMPS 2018-04-19 03:20:00 2.556 2.629 2.502 2.467 2.466 100.000 2.556 -0.000 770.100 611.400 606.900               0.0420 100.100            
DSCMET_COMPS 2018-04-19 03:15:00 2.516 2.630 2.500 2.450 2.477 100.000 2.515 0.000 770.200 611.600 607.300               0.1840 117.300            
DSCMET_COMPS 2018-04-19 03:10:00 2.510 2.619 2.489 2.431 2.460 100.000 2.509 0.000 770.300 612.100 607.400                 0.000            
DSCMET_COMPS 2018-04-19 03:05:00 2.564 2.590 2.440 2.423 2.417 100.000 2.573 0.000 770.700 612.100 607.400               0.0310 90.000            
DSCMET_COMPS 2018-04-19 03:00:00 2.508 2.559 2.472 2.423 2.384 100.000 2.510 -0.000 770.900 612.100 607.400               0.0970 92.400            
DSCMET_COMPS 2018-04-19 02:55:00 2.523 2.625 2.494 2.415 2.382 100.000 2.523 0.000 771.200 612.100 607.400               0.1670 123.700            
DSCMET_COMPS 2018-04-19 02:50:00 2.465 2.580 2.457 2.395 2.390 100.000 2.465 -0.000 771.700 612.700 607.600               0.0710 90.400            
DSCMET_COMPS 2018-04-19 02:45:00 2.413 2.523 2.415 2.374 2.395 100.000 2.414 -0.000 772.300 612.800 607.800               0.0560 86.300            
DSCMET_COMPS 2018-04-19 02:40:00 2.464 2.533 2.415 2.356 2.383 100.000 2.467 0.000 773.400 612.800 608.000               0.1380 26.970            
DSCMET_COMPS 2018-04-19 02:35:00 2.369 2.532 2.393 2.333 2.423 100.000 2.368 0.000 771.400 612.800 608.000               0.1270 117.200            
DSCMET_COMPS 2018-04-19 02:30:00 2.291 2.445 2.334 2.312 2.353 100.000 2.289 0.000 766.800 613.400 608.000               0.0880 87.100            
DSCMET_COMPS 2018-04-19 02:25:00 2.333 2.454 2.325 2.304 2.262 100.000 2.338 -0.000 766.800 613.500 608.000               0.1310 14.230            
DSCMET_COMPS 2018-04-19 02:20:00 2.420 2.457 2.341 2.284 2.247 100.000 2.427 0.000 767.200 613.500 608.100               0.1450 114.100            
DSCMET_COMPS 2018-04-19 02:15:00 2.306 2.431 2.340 2.269 2.208 100.000 2.307 0.000 767.500 614.100 608.600               0.2010 119.400            
DSCMET_COMPS 2018-04-19 02:10:00 2.333 2.452 2.348 2.244 2.253 100.000 2.332 -0.000 767.500 614.100 608.700               0.0860 85.000            
DSCMET_COMPS 2018-04-19 02:05:00 2.290 2.453 2.307 2.220 2.274 100.000 2.289 0.000 767.900 614.100 608.700                 0.000            
DSCMET_COMPS 2018-04-19 02:00:00 2.337 2.405 2.251 2.204 2.179 100.000 2.338 0.000 768.200 614.600 608.700               0.0710 84.900            
DSCMET_COMPS 2018-04-19 01:55:00 2.347 2.392 2.237 2.188 2.144 100.000 2.347 -0.000 768.100 614.800 608.700               0.0740 90.900            
DSCMET_COMPS 2018-04-19 01:50:00 2.269 2.346 2.253 2.172 2.129 100.000 2.268 0.000 768.200 614.800 609.000               0.1100 94.400            
DSCMET_COMPS 2018-04-19 01:45:00 2.139 2.291 2.142 2.160 2.090 100.000 2.138 0.000 768.800 614.800 609.300               0.0710 92.100            
DSCMET_COMPS 2018-04-19 01:40:00 2.191 2.247 2.109 2.166 2.079 100.000 2.197 0.000 768.900 615.300 609.300               0.1250 108.900            
DSCMET_COMPS 2018-04-19 01:35:00 2.263 2.325 2.199 2.154 2.116 100.000 2.266 0.000 769.400 615.400 609.300               0.1560 90.800            
DSCMET_COMPS 2018-04-19 01:30:00 2.277 2.307 2.184 2.139 2.112 100.000 2.277 0.000 769.500 615.400 609.300               0.1830 89.400            
DSCMET_COMPS 2018-04-19 01:25:00 2.154 2.260 2.140 2.156 2.022 100.000 2.153 0.000 769.500 615.500 609.300               0.2150 83.300            
DSCMET_COMPS 2018-04-19 01:20:00 2.182 2.270 2.161 2.196 2.008 100.000 2.180 0.000 769.500 616.100 609.300               0.1460 83.500            
DSCMET_COMPS 2018-04-19 01:15:00 2.246 2.286 2.172 2.242 2.079 100.000 2.249 0.000 769.500 616.100 609.300               0.1220 57.060            
DSCMET_COMPS 2018-04-19 01:10:00 2.207 2.353 2.305 2.269 2.126 100.000 2.207 0.000 770.000 616.100 609.200               0.0980 54.810            
DSCMET_COMPS 2018-04-19 01:05:00 2.192 2.345 2.236 2.314 2.163 100.000 2.190 0.000 770.100 616.100 609.000               0.1010 78.150            
DSCMET_COMPS 2018-04-19 01:00:00 2.222 2.349 2.219 2.380 2.212 100.000 2.221 0.000 770.700 616.100 608.700                 0.000            
DSCMET_COMPS 2018-04-19 00:55:00 2.429 2.423 2.292 2.461 2.253 100.000 2.434 0.000 770.800 616.500 608.700                 0.000            
DSCMET_COMPS 2018-04-19 00:50:00 2.472 2.589 2.456 2.541 2.318 100.000 2.474 0.000 770.800 616.800 608.400               0.1040 76.730            
DSCMET_COMPS 2018-04-19 00:45:00 2.463 2.572 2.452 2.612 2.415 100.000 2.464 -0.000 771.000 616.800 608.000               0.1530 53.410            
DSCMET_COMPS 2018-04-19 00:40:00 2.470 2.603 2.514 2.669 2.445 100.000 2.469 0.000 771.400 616.800 608.000               0.1940 353.600            
DSCMET_COMPS 2018-04-19 00:35:00 2.606 2.644 2.552 2.737 2.485 100.000 2.606 0.000 771.500 617.400 608.000               0.1190 9.690            
DSCMET_COMPS 2018-04-19 00:30:00 2.733 2.745 2.619 2.814 2.555 100.000 2.734 0.000 771.600 617.500 608.000               0.0910 29.020            
DSCMET_COMPS 2018-04-19 00:25:00 2.738 2.828 2.715 2.884 2.653 100.000 2.737 0.000 771.900 617.500 608.000               0.1270 58.360            
DSCMET_COMPS 2018-04-19 00:20:00 2.762 2.820 2.710 2.956 2.703 100.000 2.762 0.000 772.200 617.500 607.700               0.1190 49.800            
DSCMET_COMPS 2018-04-19 00:15:00 2.830 2.896 2.837 3.032 2.760 100.000 2.831 0.000 772.200 617.500 607.500               0.1760 23.200            
DSCMET_COMPS 2018-04-19 00:10:00 2.974 3.063 2.921 3.118 2.828 100.000 2.973 0.000 772.600 617.900 607.300               0.2030 30.630            
DSCMET_COMPS 2018-04-19 00:05:00 3.160 3.188 3.073 3.197 2.864 100.000 3.168 0.000 772.900 618.000 607.300               0.1620 50.280            
DSCMET_COMPS 2018-04-19 00:00:00 3.230 3.218 3.205 3.281 3.000 100.000 3.232 0.000 772.900 618.100 607.000               0.1020 66.880            
DSCMET_COMPS 2018-04-18 23:55:00 3.255 3.336 3.236 3.386 3.106 100.000 3.256 0.000 772.900 618.100 606.600                 0.000            
DSCMET_COMPS 2018-04-18 23:50:00 3.401 3.511 3.424 3.486 3.165 100.000 3.403 0.000 772.900 618.200 606.600                 0.000            
DSCMET_COMPS 2018-04-18 23:45:00 3.491 3.564 3.508 3.552 3.267 100.000 3.495 0.000 773.000 618.200 606.600               0.1280 81.200            
DSCMET_COMPS 2018-04-18 23:40:00 3.527 3.659 3.547 3.598 3.404 100.000 3.529 0.000 773.200 618.200 606.000               0.1540 56.400            
DSCMET_COMPS 2018-04-18 23:35:00 3.557 3.683 3.611 3.658 3.537 100.000 3.559 0.000 772.900 618.200 605.900               0.1170 75.680            
DSCMET_COMPS 2018-04-18 23:30:00 3.690 3.797 3.673 3.738 3.556 100.000 3.692 0.000 772.900 618.200 605.900               0.1850 52.620            
DSCMET_COMPS 2018-04-18 23:25:00 3.779 3.847 3.727 3.813 3.626 100.000 3.783 0.000 773.000 618.200 605.400               0.1020 79.660            
DSCMET_COMPS 2018-04-18 23:20:00 3.847 3.899 3.788 3.878 3.678 100.000 3.854 0.000 773.500 618.200 605.300               0.1250 62.340            
DSCMET_COMPS 2018-04-18 23:15:00 3.857 3.973 3.892 3.931 3.683 100.000 3.862 0.000 773.500 618.200 605.300               0.1580 57.000            
DSCMET_COMPS 2018-04-18 23:10:00 3.885 3.992 3.919 3.967 3.801 100.000 3.887 0.000 773.500 618.200 605.300               0.1080 75.850            
DSCMET_COMPS 2018-04-18 23:05:00 3.939 4.081 3.989 4.001 3.858 100.000 3.941 0.000 773.800 618.200 605.300               0.1360 75.650            
DSCMET_COMPS 2018-04-18 23:00:00 3.990 4.063 3.944 4.045 3.951 100.000 3.994 0.000 774.200 618.300 605.300               0.1270 87.000            
DSCMET_COMPS 2018-04-18 22:55:00 4.056 4.161 3.989 4.088 3.942 100.000 4.060 0.000 774.200 618.700 605.300               0.1170 55.050            
DSCMET_COMPS 2018-04-18 22:50:00 4.132 4.202 4.058 4.133 4.016 100.000 4.135 0.000 774.200 618.800 605.200               0.1020 86.000            
DSCMET_COMPS 2018-04-18 22:45:00 4.122 4.239 4.131 4.184 4.027 100.000 4.125 0.000 774.200 618.800 605.300                 0.000            
DSCMET_COMPS 2018-04-18 22:40:00 4.212 4.265 4.193 4.232 4.074 100.000 4.219 0.000 774.700 618.800 605.300               0.1030 69.780            
DSCMET_COMPS 2018-04-18 22:35:00 4.256 4.319 4.257 4.259 4.212 100.000 4.261 0.000 774.900 618.800 605.200               0.0880 68.330            
DSCMET_COMPS 2018-04-18 22:30:00 4.241 4.352 4.261 4.284 4.170 100.000 4.245 0.000 774.900 618.800 604.900               0.0900 85.700            
DSCMET_COMPS 2018-04-18 22:25:00 4.316 4.427 4.312 4.317 4.255 100.000 4.319 0.000 775.000 618.800 604.600               0.0750 87.700            
DSCMET_COMPS 2018-04-18 22:20:00 4.312 4.424 4.298 4.333 4.351 100.000 4.316 0.000 775.600 618.900 604.600               0.1480 100.400            
DSCMET_COMPS 2018-04-18 22:15:00 4.321 4.414 4.279 4.334 4.372 100.000 4.324 0.000 775.600 619.500 604.600               0.0500 15.100            
DSCMET_COMPS 2018-04-18 22:10:00 4.334 4.436 4.353 4.347 4.340 100.000 4.339 0.000 776.200 619.500 604.600               0.1240 43.640            
DSCMET_COMPS 2018-04-18 22:05:00 4.314 4.441 4.314 4.363 4.378 100.000 4.317 0.000 776.600 619.500 604.600               0.0200 88.400            
DSCMET_COMPS 2018-04-18 22:00:00 4.377 4.469 4.367 4.376 4.345 100.000 4.380 0.000 777.700 619.500 604.600               0.1140 36.760            
DSCMET_COMPS 2018-04-18 21:55:00 4.380 4.509 4.414 4.394 4.359 100.000 4.383 0.000 777.000 619.500 604.600               0.0250 233.800            
DSCMET_COMPS 2018-04-18 21:50:00 4.451 4.496 4.442 4.417 4.439 100.000 4.460 0.000 774.200 619.500 604.600               0.0410 129.900            
DSCMET_COMPS 2018-04-18 21:45:00 4.438 4.517 4.449 4.444 4.470 100.000 4.443 0.000 774.200 619.500 604.600               0.0500 81.300            
DSCMET_COMPS 2018-04-18 21:40:00 4.472 4.552 4.439 4.469 4.459 100.000 4.476 0.000 774.600 619.700 604.100                 0.000            
DSCMET_COMPS 2018-04-18 21:35:00 4.444 4.576 4.485 4.489 4.458 100.000 4.447 0.000 774.900 619.900 603.900               0.0810 61.100            
DSCMET_COMPS 2018-04-18 21:30:00 4.421 4.561 4.463 4.489 4.486 100.000 4.426 0.000 775.000 620.200 603.900               0.0970 90.100            
DSCMET_COMPS 2018-04-18 21:25:00 4.463 4.561 4.454 4.507 4.507 100.000 4.469 0.000 775.600 620.200 603.900               0.0420 300.500            
DSCMET_COMPS 2018-04-18 21:20:00 4.446 4.577 4.490 4.529 4.468 100.000 4.450 0.000 776.100 620.200 603.900               0.0390 64.600            
DSCMET_COMPS 2018-04-18 21:15:00 4.444 4.580 4.484 4.560 4.490 100.000 4.448 0.000 777.200 620.200 603.900               0.0660 76.840            
DSCMET_COMPS 2018-04-18 21:10:00 4.465 4.573 4.486 4.585 4.588 100.000 4.469 0.000 778.800 620.200 603.900               0.0260 79.330            
DSCMET_COMPS 2018-04-18 21:05:00 4.582 4.601 4.535 4.627 4.552 100.000 4.592 0.000 773.000 620.300 603.900               0.1530 328.400            
DSCMET_COMPS 2018-04-18 21:00:00 4.590 4.672 4.639 4.679 4.582 100.000 4.595 0.000 759.300 620.800 603.900               0.1090 40.090            
DSCMET_COMPS 2018-04-18 20:55:00 4.594 4.700 4.616 4.742 4.677 100.000 4.597 0.000 759.400 620.900 603.900               0.0810 287.900            
DSCMET_COMPS 2018-04-18 20:50:00 4.692 4.766 4.684 4.797 4.756 100.000 4.696 0.000 759.600 620.900 603.300               0.1050 31.620            
DSCMET_COMPS 2018-04-18 20:45:00 4.716 4.861 4.760 4.861 4.815 100.000 4.720 0.000 759.900 620.900 603.200               0.0640 67.420            
DSCMET_COMPS 2018-04-18 20:40:00 4.801 4.882 4.834 4.918 4.774 100.000 4.807 0.000 760.000 620.900 603.200               0.1170 306.300            
DSCMET_COMPS 2018-04-18 20:35:00 4.831 4.931 4.850 4.978 4.844 100.000 4.837 0.000 760.000 620.900 603.000                 0.000            
DSCMET_COMPS 2018-04-18 20:30:00 4.936 4.995 4.911 5.033 4.861 100.000 4.941 0.000 760.000 620.900 602.000                 0.000            
DSCMET_COMPS 2018-04-18 20:25:00 4.962 5.052 4.968 5.079 4.914 100.000 4.966 0.000 760.000 620.300 601.000               0.1480 87.300            
DSCMET_COMPS 2018-04-18 20:20:00 4.986 5.089 5.000 5.111 4.973 100.000 4.991 0.000 760.000 620.100 599.800               0.1230 199.200            
DSCMET_COMPS 2018-04-18 20:15:00 5.040 5.089 4.958 5.149 5.033 100.100 5.052 -0.009 760.000 620.200 599.800               0.1490 292.400            
DSCMET_COMPS 2018-04-18 20:10:00 4.987 5.104 5.029 5.195 5.006 100.000 4.993 0.000 760.300 620.200 599.800               0.1560 313.300            
DSCMET_COMPS 2018-04-18 20:05:00 5.042 5.152 5.047 5.263 5.048 100.000 5.047 0.000 760.600 620.200 599.800               0.1060 82.100            
DSCMET_COMPS 2018-04-18 20:00:00 5.159 5.241 5.109 5.334 5.069 100.000 5.164 0.000 760.600 620.200 599.800               0.1190 338.700            
DSCMET_COMPS 2018-04-18 19:55:00 5.249 5.376 5.303 5.409 5.136 100.000 5.254 0.000 760.600 620.200 599.800               0.0860 108.600            
DSCMET_COMPS 2018-04-18 19:50:00 5.315 5.416 5.325 5.500 5.239 100.000 5.319 0.000 760.600 620.200 599.800               0.1430 90.900            
DSCMET_COMPS 2018-04-18 19:45:00 5.367 5.497 5.356 5.584 5.363 100.000 5.375 0.000 760.600 620.200 599.300               0.1250 89.900            
DSCMET_COMPS 2018-04-18 19:40:00 5.418 5.541 5.481 5.676 5.443 100.000 5.423 0.000 760.600 620.200 599.200               0.1360 120.900            
DSCMET_COMPS 2018-04-18 19:35:00 5.462 5.627 5.541 5.762 5.543 100.000 5.467 0.000 760.900 620.200 599.200               0.1950 131.800            
DSCMET_COMPS 2018-04-18 19:30:00 5.562 5.667 5.601 5.849 5.558 100.000 5.567 0.000 761.300 620.200 599.200               0.1110 116.600            
DSCMET_COMPS 2018-04-18 19:25:00 5.539 5.688 5.653 5.931 5.640 100.000 5.544 0.000 762.400 620.200 598.900                 0.000            
DSCMET_COMPS 2018-04-18 19:20:00 5.634 5.783 5.760 6.003 5.749 100.000 5.643 0.000 769.700 620.200 598.500               0.3630 139.700            
DSCMET_COMPS 2018-04-18 19:15:00 5.686 5.810 5.820 6.064 5.797 100.000 5.695 0.000 770.600 620.200 598.500               0.1980 205.500            
DSCMET_COMPS 2018-04-18 19:10:00 5.783 5.895 5.865 6.144 5.854 100.000 5.789 0.000 770.800 620.200 598.500               0.2240 145.300            
DSCMET_COMPS 2018-04-18 19:05:00 5.803 5.961 5.879 6.233 5.930 100.000 5.810 0.000 770.600 620.200 598.500               0.1630 239.400            
DSCMET_COMPS 2018-04-18 19:00:00 5.818 5.977 5.910 6.341 6.000 100.000 5.824 0.000 770.700 620.200 598.500               0.2140 214.300            
DSCMET_COMPS 2018-04-18 18:55:00 5.856 6.037 6.014 6.457 6.098 100.000 5.862 0.000 770.700 620.200 598.500               0.1820 156.300            
DSCMET_COMPS 2018-04-18 18:50:00 5.937 6.093 6.128 6.575 6.253 100.000 5.944 0.000 770.400 620.200 597.900               0.1960 136.200            
DSCMET_COMPS 2018-04-18 18:45:00 6.088 6.240 6.251 6.680 6.448 100.000 6.096 0.000 770.300 620.200 597.800               0.1860 126.300            
DSCMET_COMPS 2018-04-18 18:40:00 6.181 6.352 6.328 6.781 6.452 100.000 6.187 0.000 770.200 620.200 597.800               0.1050 138.200            
DSCMET_COMPS 2018-04-18 18:35:00 6.208 6.364 6.358 6.901 6.515 100.000 6.215 0.000 770.500 620.200 597.800               0.1810 131.700            
DSCMET_COMPS 2018-04-18 18:30:00 6.283 6.452 6.479 7.001 6.718 100.000 6.289 0.000 770.300 620.200 597.800               0.2120 147.700            
DSCMET_COMPS 2018-04-18 18:25:00 6.357 6.516 6.590 7.087 6.767 100.000 6.366 0.000 770.400 620.200 597.700               0.1070 144.000            
DSCMET_COMPS 2018-04-18 18:20:00 6.457 6.595 6.707 7.156 6.927 100.000 6.468 0.000 770.100 620.200 597.500                 0.000            
DSCMET_COMPS 2018-04-18 18:15:00 6.546 6.762 6.819 7.209 6.997 100.000 6.554 0.000 770.100 620.200 597.500               0.1850 121.400            
DSCMET_COMPS 2018-04-18 18:10:00 6.690 6.845 6.846 7.262 7.056 100.000 6.696 0.000 770.100 620.200 597.800               0.2650 129.300            
DSCMET_COMPS 2018-04-18 18:05:00 6.751 6.912 6.916 7.310 7.110 100.000 6.757 0.000 770.100 620.200 597.800               0.0300 203.500            
DSCMET_COMPS 2018-04-18 18:00:00 6.807 6.946 6.970 7.354 7.264 100.000 6.815 0.000 770.100 620.200 597.800               0.0860 124.500            
DSCMET_COMPS 2018-04-18 17:55:00 6.891 7.011 7.052 7.385 7.324 100.000 6.900 0.000 770.100 620.200 597.800               0.2370 173.100            
DSCMET_COMPS 2018-04-18 17:50:00 6.891 7.041 7.072 7.422 7.331 100.000 6.898 0.000 770.100 620.200 597.800               0.1510 101.600            
DSCMET_COMPS 2018-04-18 17:45:00 6.954 7.077 7.112 7.455 7.366 100.000 6.960 0.000 770.100 620.200 597.800               0.1240 181.100            
DSCMET_COMPS 2018-04-18 17:40:00 6.991 7.140 7.150 7.497 7.347 100.000 6.997 0.000 770.100 620.200 597.800               0.1590 114.600            
DSCMET_COMPS 2018-04-18 17:35:00 7.040 7.151 7.155 7.548 7.425 100.000 7.050 0.000 770.100 620.200 597.800               0.1530 89.000            
DSCMET_COMPS 2018-04-18 17:30:00 7.076 7.198 7.210 7.585 7.456 100.000 7.087 0.000 770.100 620.200 597.600               0.1870 175.700            
DSCMET_COMPS 2018-04-18 17:25:00 7.066 7.206 7.223 7.649 7.436 100.000 7.074 0.000 770.100 620.200 597.200               0.1800 125.100            
DSCMET_COMPS 2018-04-18 17:20:00 7.039 7.240 7.271 7.709 7.485 100.000 7.046 0.000 770.100 620.200 597.100               0.1930 87.100            
DSCMET_COMPS 2018-04-18 17:15:00 7.059 7.256 7.274 7.780 7.496 100.000 7.066 0.000 770.100 620.200 597.100               0.1180 87.200            
DSCMET_COMPS 2018-04-18 17:10:00 7.095 7.263 7.291 7.870 7.578 100.000 7.103 0.000 770.100 620.200 597.100                 0.000            
DSCMET_COMPS 2018-04-18 17:05:00 7.098 7.271 7.361 7.980 7.549 100.000 7.105 0.000 770.100 620.200 597.100               0.0830 86.600            
DSCMET_COMPS 2018-04-18 17:00:00 7.148 7.309 7.386 8.110 7.602 100.000 7.154 0.000 770.100 620.200 597.100               0.1610 88.400            
DSCMET_COMPS 2018-04-18 16:55:00 7.196 7.370 7.491 8.250 7.738 100.000 7.203 0.000 770.000 620.100 597.100               0.1610 86.100            
DSCMET_COMPS 2018-04-18 16:50:00 7.346 7.514 7.616 8.390 7.895 100.000 7.353 0.000 769.600 620.200 597.100               0.1540 90.800            
DSCMET_COMPS 2018-04-18 16:45:00 7.516 7.642 7.752 8.510 8.040 100.100 7.530 -0.010 769.400 620.200 597.100               0.1830 84.900            
DSCMET_COMPS 2018-04-18 16:40:00 7.542 7.741 7.909 8.610 8.230 100.000 7.550 0.000 769.400 620.200 597.100               0.2000 98.400            
DSCMET_COMPS 2018-04-18 16:35:00 7.612 7.809 8.030 8.700 8.360 100.000 7.620 0.000 769.400 620.200 597.100               0.1480 94.400            
DSCMET_COMPS 2018-04-18 16:30:00 7.601 7.824 8.010 8.780 8.430 100.000 7.608 -0.000 769.400 620.200 597.100               0.1120 89.400            
DSCMET_COMPS 2018-04-18 16:25:00 7.504 7.832 8.090 8.850 8.510 100.000 7.511 0.000 769.400 620.200 597.100               0.1070 94.200            
DSCMET_COMPS 2018-04-18 16:20:00 7.537 7.782 8.010 8.930 8.550 100.000 7.547 0.000 769.400 620.200 597.100               0.1450 82.800            
DSCMET_COMPS 2018-04-18 16:15:00 7.490 7.762 8.050 9.000 8.580 100.000 7.498 0.000 769.400 620.200 597.800               0.2300 109.700            
DSCMET_COMPS 2018-04-18 16:10:00 7.469 7.711 8.030 9.080 8.660 100.000 7.476 0.000 769.500 620.200 597.800               0.1210 96.400            
DSCMET_COMPS 2018-04-18 16:05:00 7.516 7.722 8.070 9.170 8.690 100.000 7.524 0.000 769.500 620.300 598.000                 0.000            
DSCMET_COMPS 2018-04-18 16:00:00 7.615 7.896 8.210 9.240 8.850 100.000 7.623 0.000 769.700 620.800 598.400               0.2100 128.100            
DSCMET_COMPS 2018-04-18 15:55:00 7.845 8.150 8.400 9.280 9.200 100.000 7.856 0.000 770.100 620.900 598.500               0.1310 131.200            
DSCMET_COMPS 2018-04-18 15:50:00 8.100 8.330 8.570 9.240 9.410 100.000 8.110 0.000 770.100 620.900 598.700               0.1030 111.400            
DSCMET_COMPS 2018-04-18 15:45:00 8.070 8.360 8.570 9.180 9.250 100.000 8.080 0.000 770.600 620.900 599.600               0.1760 88.400            
DSCMET_COMPS 2018-04-18 15:40:00 8.080 8.380 8.500 9.100 9.290 100.000 8.090 0.000 771.200 620.900 599.800               0.1690 90.300            
DSCMET_COMPS 2018-04-18 15:35:00 7.969 8.310 8.410 8.990 9.330 100.000 7.977 -0.000 772.400 621.500 600.300               0.0910 59.930            
DSCMET_COMPS 2018-04-18 15:30:00 7.876 8.260 8.350 8.870 9.280 100.000 7.884 -0.000 772.300 622.000 600.800               0.0890 284.000            
DSCMET_COMPS 2018-04-18 15:25:00 7.791 8.130 8.360 8.730 9.200 100.000 7.801 0.000 772.700 622.600 601.200               0.1590 299.500            
DSCMET_COMPS 2018-04-18 15:20:00 7.686 8.010 8.280 8.570 9.160 100.000 7.694 -0.000 773.100 623.300 601.600               0.1940 323.200            
DSCMET_COMPS 2018-04-18 15:15:00 7.531 7.856 8.000 8.410 9.050 100.000 7.538 0.000 773.200 623.800 602.100               0.1360 35.540            
DSCMET_COMPS 2018-04-18 15:10:00 7.438 7.736 7.857 8.230 8.670 100.000 7.445 0.000 773.300 624.200 602.600               0.0830 346.300            
DSCMET_COMPS 2018-04-18 15:05:00 7.353 7.648 7.774 8.030 8.390 100.000 7.361 0.000 773.900 624.800 603.100               0.1730 334.400            
DSCMET_COMPS 2018-04-18 15:00:00 7.309 7.484 7.576 7.811 8.100 100.000 7.319 0.000 774.600 624.600 603.600                 0.000            
DSCMET_COMPS 2018-04-18 14:55:00 7.114 7.274 7.401 7.581 7.879 100.000 7.125 0.000 774.500 620.200 603.400               0.1430 89.700            
DSCMET_COMPS 2018-04-18 14:50:00 6.846 7.048 7.158 7.394 7.528 100.000 6.853 0.000 774.000 614.700 599.600               0.1780 90.700            
DSCMET_COMPS 2018-04-18 14:45:00 6.730 6.873 6.940 7.299 7.301 100.000 6.737 0.000 773.200 613.700 597.900               0.1100 107.500            
DSCMET_COMPS 2018-04-18 14:40:00 6.628 6.800 6.817 7.285 7.132 100.000 6.633 0.000 770.600 609.100 594.000               0.2590 130.600            
DSCMET_COMPS 2018-04-18 14:35:00 6.614 6.774 6.759 7.352 7.015 100.000 6.621 0.000 770.100 602.700 590.100               0.2140 115.500            
DSCMET_COMPS 2018-04-18 14:30:00 6.635 6.777 6.771 7.450 6.954 100.000 6.642 0.000 769.600 591.600 584.100               0.1670 118.300            
DSCMET_COMPS 2018-04-18 14:25:00 6.638 6.755 6.773 7.587 6.939 100.000 6.647 0.000 768.800 590.000 583.000               0.1720 136.700            
DSCMET_COMPS 2018-04-18 14:20:00 6.667 6.765 6.782 7.786 7.016 100.000 6.674 0.000 767.300 587.700 580.200               0.2550 95.200            
DSCMET_COMPS 2018-04-18 14:15:00 6.645 6.825 6.852 8.050 7.019 100.000 6.652 0.000 767.400 585.400 578.100               0.2960 113.200            
DSCMET_COMPS 2018-04-18 14:10:00 6.933 7.051 7.144 8.300 7.219 100.000 6.940 0.000 768.700 583.400 574.700               0.2720 105.100            
DSCMET_COMPS 2018-04-18 14:05:00 7.231 7.327 7.420 8.560 7.644 100.000 7.238 0.000 769.700 579.700 565.200               0.2590 87.100            
DSCMET_COMPS 2018-04-18 14:00:00 7.437 7.536 7.642 8.820 7.949 100.100 7.453 -0.010 768.300 569.400 557.400               0.2030 93.000            
DSCMET_COMPS 2018-04-18 13:55:00 7.577 7.743 7.857 9.070 8.320 100.000 7.584 -0.000 768.100 558.600 547.300               0.3090 91.700            
DSCMET_COMPS 2018-04-18 13:50:00 7.616 7.869 8.020 9.280 8.570 100.000 7.624 0.000 767.600 553.500 544.200                 0.000            
DSCMET_COMPS 2018-04-18 13:45:00 7.639 7.963 8.200 9.460 8.770 100.000 7.648 0.000 765.600 552.800 544.200               0.1520 89.900            
DSCMET_COMPS 2018-04-18 13:40:00 7.727 8.080 8.350 9.630 8.970 100.000 7.735 0.000 765.200 551.200 543.600               0.2290 90.100            
DSCMET_COMPS 2018-04-18 13:35:00 7.879 8.200 8.530 9.780 9.220 100.000 7.886 -0.000 765.200 549.000 542.800               0.2150 89.900            
DSCMET_COMPS 2018-04-18 13:30:00 7.948 8.320 8.680 9.900 9.560 100.000 7.958 0.000 765.100 548.900 542.800               0.2130 88.400            
DSCMET_COMPS 2018-04-18 13:25:00 7.979 8.390 8.810 9.950 9.780 100.000 7.987 0.000 765.100 548.900 542.800               0.2190 92.300            
DSCMET_COMPS 2018-04-18 13:20:00 7.938 8.480 8.940 9.930 10.140 100.000 7.946 0.000 765.200 548.900 543.200               0.2680 90.800            
DSCMET_COMPS 2018-04-18 13:15:00 7.794 8.340 8.840 9.920 9.940 100.000 7.803 -0.000 765.400 549.200 543.900               0.2350 109.400            
DSCMET_COMPS 2018-04-18 13:10:00 7.693 8.090 8.690 9.970 9.910 100.000 7.701 0.000 765.800 549.600 544.500               0.2510 86.200            
DSCMET_COMPS 2018-04-18 13:05:00 7.707 8.040 8.570 10.050 9.810 100.000 7.715 0.000 766.000 549.600 545.200               0.2400 91.400            
DSCMET_COMPS 2018-04-18 13:00:00 7.905 8.070 8.610 10.110 9.810 100.100 7.923 -0.011 765.800 549.700 545.500               0.2480 90.000            
DSCMET_COMPS 2018-04-18 12:55:00 8.010 8.220 8.780 10.150 10.210 100.000 8.020 0.000 765.200 550.500 545.600               0.2350 92.300            
DSCMET_COMPS 2018-04-18 12:50:00 7.883 8.220 8.820 10.120 10.380 100.000 7.892 0.000 765.700 551.000 546.100               0.1680 96.600            
DSCMET_COMPS 2018-04-18 12:45:00 7.674 7.961 8.470 10.170 9.720 100.000 7.683 -0.000 766.800 551.000 547.400                 0.000            
DSCMET_COMPS 2018-04-18 12:40:00 7.810 8.070 8.630 10.280 10.070 100.000 7.818 0.000 766.800 551.000 547.600                 0.000            
DSCMET_COMPS 2018-04-18 12:35:00 8.260 8.530 8.960 10.310 10.270 100.000 8.270 0.000 766.800 551.400 548.000               0.2930 102.000            
DSCMET_COMPS 2018-04-18 12:30:00 8.290 8.600 9.210 10.200 10.810 100.000 8.300 0.000 767.100 551.700 548.100               0.3380 115.500            
DSCMET_COMPS 2018-04-18 12:25:00 8.210 8.540 9.280 9.940 10.680 100.000 8.220 0.000 767.700 552.300 551.700               0.3360 118.500            
DSCMET_COMPS 2018-04-18 12:20:00 8.100 8.450 9.190 9.710 10.100 100.000 8.110 0.000 768.400 552.500 556.800               0.2180 123.400            
DSCMET_COMPS 2018-04-18 12:15:00 7.963 8.350 8.880 9.580 9.700 100.000 7.970 0.000 768.700 553.000 561.200               0.2680 128.100            
DSCMET_COMPS 2018-04-18 12:10:00 7.856 8.300 8.870 9.500 9.750 100.000 7.863 0.000 768.800 553.200 562.500               0.2880 125.500            
DSCMET_COMPS 2018-04-18 12:05:00 7.817 8.170 8.590 9.380 9.710 100.000 7.825 -0.000 769.200 553.700 565.300               0.3490 128.500            
DSCMET_COMPS 2018-04-18 12:00:00 7.783 8.160 8.520 9.220 9.600 100.000 7.797 0.000 769.400 553.700 567.600               0.3130 148.200            
DSCMET_COMPS 2018-04-18 11:55:00 7.578 8.020 8.460 9.020 9.530 100.000 7.588 0.000 769.600 554.000 568.900               0.3820 125.800            
DSCMET_COMPS 2018-04-18 11:50:00 7.379 8.040 8.300 8.760 9.120 100.000 7.387 0.000 770.200 554.500 570.200               0.3100 155.500            
DSCMET_COMPS 2018-04-18 11:45:00 7.204 7.838 8.040 8.540 9.080 99.600 7.144 0.041 770.900 555.800 571.200               0.2730 169.600            
DSCMET_COMPS 2018-04-18 11:40:00 7.172 7.849 7.993 8.390 8.750 97.500 6.811 0.253 772.800 558.500 572.300               0.2750 199.200            
DSCMET_COMPS 2018-04-18 11:35:00 7.232 7.675 7.856 8.250 8.610 100.000 7.238 0.000 775.100 562.800 573.600                 0.000            
DSCMET_COMPS 2018-04-18 11:30:00 7.262 7.543 7.651 8.100 8.380 100.000 7.269 0.000 776.000 567.400 574.900               0.2160 135.600            
DSCMET_COMPS 2018-04-18 11:25:00 7.118 7.378 7.429 8.010 8.220 100.000 7.126 0.000 776.200 553.700 576.200               0.1180 102.800            
DSCMET_COMPS 2018-04-18 11:20:00 7.048 7.270 7.320 7.945 8.090 100.000 7.057 0.000 776.200 554.100 577.000               0.1120 119.000            
DSCMET_COMPS 2018-04-18 11:15:00 6.931 7.243 7.284 7.881 8.020 100.000 6.939 0.000 776.300 554.400 578.100               0.2300 145.000            
DSCMET_COMPS 2018-04-18 11:10:00 6.768 7.251 7.311 7.806 7.917 99.800 6.741 0.020 776.800 554.100 578.800               0.0530 89.300            
DSCMET_COMPS 2018-04-18 11:05:00 6.775 7.149 7.162 7.727 7.779 99.900 6.770 0.010 778.400 553.000 579.100               0.1480 247.700            
DSCMET_COMPS 2018-04-18 11:00:00 6.599 7.144 7.238 7.631 7.866 100.000 6.604 0.000 779.100 553.200 579.700               0.1840 155.900            
DSCMET_COMPS 2018-04-18 10:55:00 6.667 7.119 7.173 7.492 7.847 99.700 6.635 0.029 780.000 553.300 579.700               0.2090 210.200            
DSCMET_COMPS 2018-04-18 10:50:00 6.719 7.118 6.969 7.327 7.728 99.300 6.625 0.069 781.800 554.100 580.600               0.1040 255.100            
DSCMET_COMPS 2018-04-18 10:45:00 6.533 6.984 6.758 7.173 7.521 100.000 6.537 0.000 784.000 555.400 581.700               0.1200 70.310            
DSCMET_COMPS 2018-04-18 10:40:00 6.450 6.883 6.781 7.015 7.400 100.000 6.456 0.000 785.500 557.400 583.400               0.2000 72.010            
DSCMET_COMPS 2018-04-18 10:35:00 6.131 6.656 6.582 6.821 7.225 100.000 6.136 0.000 786.300 558.500 584.700               0.1000 74.870            
DSCMET_COMPS 2018-04-18 10:30:00 5.890 6.378 6.396 6.611 7.113 100.000 5.894 0.000 787.000 559.700 586.100                 0.000            
DSCMET_COMPS 2018-04-18 10:25:00 5.798 6.267 6.013 6.464 6.696 100.000 5.801 0.000 788.100 561.400 586.300               0.1390 280.100            
DSCMET_COMPS 2018-04-18 10:20:00 5.661 6.075 5.767 6.394 6.549 100.000 5.663 0.000 791.400 562.600 587.400               0.1150 278.100            
DSCMET_COMPS 2018-04-18 10:15:00 5.534 5.932 5.827 6.334 6.342 100.000 5.537 0.000 793.500 564.300 588.500               0.1880 324.900            
DSCMET_COMPS 2018-04-18 10:10:00 5.493 5.854 5.825 6.235 6.213 100.000 5.496 0.000 794.300 563.800 589.000               0.1860 321.700            
DSCMET_COMPS 2018-04-18 10:05:00 5.379 5.714 5.829 6.129 6.072 100.000 5.381 0.000 794.800 563.500 588.400               0.1290 58.580            
DSCMET_COMPS 2018-04-18 10:00:00 5.167 5.453 5.543 6.036 6.127 100.000 5.169 0.000 796.300 562.800 587.700               0.0390 68.470            
DSCMET_COMPS 2018-04-18 09:55:00 5.179 5.447 5.476 5.935 6.097 100.000 5.181 0.000 793.300 562.900 586.100               0.1450 51.320            
DSCMET_COMPS 2018-04-18 09:50:00 5.187 5.384 5.420 5.834 5.973 100.000 5.191 0.000 792.000 562.300 585.200               0.2140 338.800            
DSCMET_COMPS 2018-04-18 09:45:00 5.108 5.469 5.561 5.719 5.902 100.000 5.111 0.000 792.900 561.800 585.000               0.1700 315.700            
DSCMET_COMPS 2018-04-18 09:40:00 5.033 5.309 5.400 5.620 5.792 100.000 5.034 0.000 794.200 561.500 585.000               0.0200 86.800            
DSCMET_COMPS 2018-04-18 09:35:00 5.014 5.244 5.287 5.560 5.632 100.000 5.023 0.000 790.400 561.100 584.900               0.1340 33.970            
DSCMET_COMPS 2018-04-18 09:30:00 4.967 5.250 5.181 5.488 5.415 100.000 4.975 0.000 787.500 560.800 585.100               0.0660 312.400            
DSCMET_COMPS 2018-04-18 09:25:00 4.833 5.127 5.075 5.427 5.404 100.000 4.837 0.000 787.700 560.500 586.400                 0.000            
DSCMET_COMPS 2018-04-18 09:20:00 4.686 5.000 5.048 5.367 5.245 100.000 4.687 0.000 788.200 560.600 587.800                 0.000            
DSCMET_COMPS 2018-04-18 09:15:00 4.604 4.864 4.895 5.335 5.294 100.000 4.605 0.000 789.000 561.800 589.100               0.1530 43.730            
DSCMET_COMPS 2018-04-18 09:10:00 4.618 4.805 4.802 5.338 5.370 100.000 4.618 0.000 789.700 563.900 589.900               0.1620 314.200            
DSCMET_COMPS 2018-04-18 09:05:00 4.520 4.786 4.906 5.281 5.324 100.000 4.522 0.000 789.800 565.700 590.500               0.0590 279.400            
DSCMET_COMPS 2018-04-18 09:00:00 4.507 4.747 4.849 5.188 5.354 100.000 4.511 0.000 790.000 566.000 591.300               0.0880 268.800            
DSCMET_COMPS 2018-04-18 08:55:00 4.473 4.726 4.677 5.138 5.159 100.000 4.476 0.000 790.500 566.500 591.900               0.0730 245.700            
DSCMET_COMPS 2018-04-18 08:50:00 4.344 4.632 4.603 5.074 5.131 100.000 4.346 0.000 790.900 567.400 592.700               0.0440 293.600            
DSCMET_COMPS 2018-04-18 08:45:00 4.250 4.509 4.486 4.986 5.152 100.000 4.251 0.000 792.000 568.600 593.600               0.0200 270.800            
DSCMET_COMPS 2018-04-18 08:40:00 4.171 4.407 4.502 4.877 5.091 100.000 4.173 0.000 793.200 570.800 594.200               0.0710 42.460            
DSCMET_COMPS 2018-04-18 08:35:00 4.131 4.384 4.361 4.762 4.943 100.000 4.135 0.000 787.500 573.100 595.100               0.0310 32.720            
DSCMET_COMPS 2018-04-18 08:30:00 4.057 4.369 4.330 4.641 4.891 100.000 4.067 0.000 783.100 575.100 596.300               0.0050 266.900            
DSCMET_COMPS 2018-04-18 08:25:00 3.980 4.197 4.295 4.523 4.743 100.000 3.985 0.000 782.200 577.100 597.100               0.0690 300.900            
DSCMET_COMPS 2018-04-18 08:20:00 3.851 4.157 4.261 4.397 4.615 100.000 3.852 0.000 781.600 575.100 598.000               0.0600 296.300            
DSCMET_COMPS 2018-04-18 08:15:00 3.740 4.017 4.149 4.259 4.549 100.000 3.742 -0.000 782.000 575.300 598.500                 0.000            
DSCMET_COMPS 2018-04-18 08:10:00 3.565 3.872 4.018 4.123 4.425 100.000 3.567 0.000 783.200 576.400 599.200               0.0620 71.980            
DSCMET_COMPS 2018-04-18 08:05:00 3.388 3.784 3.898 3.983 4.279 100.000 3.391 0.000 783.600 576.800 600.000               0.0050 310.700            
DSCMET_COMPS 2018-04-18 08:00:00 3.335 3.627 3.741 3.853 3.997 100.000 3.338 0.000 784.200 575.500 600.700               0.1140 142.700            
DSCMET_COMPS 2018-04-18 07:55:00 3.223 3.486 3.637 3.724 3.956 100.000 3.225 0.000 782.100 577.000 601.200               0.0590 309.300            
DSCMET_COMPS 2018-04-18 07:50:00 3.105 3.428 3.502 3.589 3.804 100.000 3.108 0.000 774.300 576.600 602.000               0.0090 250.500            
DSCMET_COMPS 2018-04-18 07:45:00 3.050 3.327 3.443 3.451 3.718 100.000 3.051 0.000 772.400 576.800 602.000               0.1000 53.380            
DSCMET_COMPS 2018-04-18 07:40:00 2.930 3.201 3.306 3.334 3.486 100.000 2.931 0.000 772.600 575.000 602.600               0.1250 105.600            
DSCMET_COMPS 2018-04-18 07:35:00 2.914 3.025 3.157 3.217 3.419 100.100 2.926 -0.008 772.500 575.400 602.700               0.0960 169.200            
DSCMET_COMPS 2018-04-18 07:30:00 2.756 2.964 3.103 3.088 3.367 100.000 2.762 0.000 772.200 576.300 603.100               0.1630 302.700            
DSCMET_COMPS 2018-04-18 07:25:00 2.683 2.880 3.009 2.965 3.248 100.000 2.686 0.000 772.400 577.200 604.000               0.1090 223.800            
DSCMET_COMPS 2018-04-18 07:20:00 2.585 2.803 2.904 2.844 3.073 100.000 2.584 0.000 772.500 578.100 604.600               0.1410 313.100            
DSCMET_COMPS 2018-04-18 07:15:00 2.498 2.705 2.803 2.726 2.885 100.000 2.499 0.000 772.600 579.100 605.400               0.0880 112.600            
DSCMET_COMPS 2018-04-18 07:10:00 2.448 2.604 2.649 2.595 2.833 100.000 2.451 0.000 772.900 579.800 606.400                 0.000            
DSCMET_COMPS 2018-04-18 07:05:00 2.422 2.558 2.528 2.470 2.713 100.000 2.426 0.000 772.800 581.000 607.500               0.0810 246.800            
DSCMET_COMPS 2018-04-18 07:00:00 2.355 2.510 2.462 2.363 2.618 100.000 2.355 0.000 772.600 582.100 609.400               0.0130 120.000            
DSCMET_COMPS 2018-04-18 06:55:00 2.355 2.445 2.390 2.276 2.528 100.000 2.357 0.000 773.000 582.600 603.900               0.0560 93.800            
DSCMET_COMPS 2018-04-18 06:50:00 2.290 2.408 2.327 2.189 2.409 100.000 2.291 0.000 773.600 581.900 604.400               0.1220 89.200            
DSCMET_COMPS 2018-04-18 06:45:00 2.260 2.303 2.220 2.110 2.311 100.100 2.270 -0.007 773.100 580.900 604.700               0.1110 90.000            
DSCMET_COMPS 2018-04-18 06:40:00 2.092 2.215 2.150 2.034 2.232 100.000 2.096 0.000 772.200 583.100 604.400               0.1290 93.300            
DSCMET_COMPS 2018-04-18 06:35:00 2.059 2.191 2.101 1.963 2.121 100.000 2.061 0.000 772.400 583.700 603.900               0.1140 95.800            
DSCMET_COMPS 2018-04-18 06:30:00 1.944 2.119 2.020 1.903 2.042 100.000 1.944 0.000 772.600 584.500 603.000               0.1480 120.200            
DSCMET_COMPS 2018-04-18 06:25:00 1.941 2.062 1.942 1.854 1.988 100.000 1.943 0.000 772.700 586.200 603.000               0.1460 110.900            
DSCMET_COMPS 2018-04-18 06:20:00 1.948 2.002 1.884 1.814 1.932 100.000 1.952 0.000 772.600 594.500 605.300               0.1180 102.900            
DSCMET_COMPS 2018-04-18 06:15:00 1.850 1.945 1.836 1.781 1.857 100.000 1.851 0.000 768.900 588.100 605.500               0.0990 90.100            
DSCMET_COMPS 2018-04-18 06:10:00 1.785 1.904 1.800 1.754 1.806 100.000 1.786 0.000 763.700 588.200 607.900               0.1710 314.300            
DSCMET_COMPS 2018-04-18 06:05:00 1.744 1.879 1.771 1.728 1.775 100.000 1.744 0.000 762.600 589.500 613.900                 0.000            
DSCMET_COMPS 2018-04-18 06:00:00 1.773 1.886 1.785 1.700 1.746 100.000 1.778 0.000 762.700 593.000 606.100               0.1220 112.300            
DSCMET_COMPS 2018-04-18 05:55:00 1.807 1.882 1.745 1.688 1.712 100.000 1.814 0.000 763.700 595.200 600.100               0.0130 297.100            
DSCMET_COMPS 2018-04-18 05:50:00 1.722 1.812 1.692 1.680 1.709 100.000 1.723 0.000 759.100 592.200 600.500               0.1360 88.800            
DSCMET_COMPS 2018-04-18 05:45:00 1.676 1.776 1.677 1.668 1.743 100.000 1.676 0.000 757.400 599.500 596.800               0.1590 72.960            
DSCMET_COMPS 2018-04-18 05:40:00 1.659 1.767 1.683 1.653 1.714 100.000 1.658 0.000 758.200 608.000 596.200               0.1090 57.770            
DSCMET_COMPS 2018-04-18 05:35:00 1.652 1.773 1.661 1.651 1.658 100.000 1.655 0.000 749.000 603.000 596.400               0.1980 325.300            
DSCMET_COMPS 2018-04-18 05:30:00 1.673 1.815 1.705 1.651 1.672 100.000 1.674 0.000 747.400 604.000 596.000               0.1520 317.500            
DSCMET_COMPS 2018-04-18 05:25:00 1.676 1.824 1.677 1.650 1.649 100.000 1.677 0.000 745.800 607.700 596.600               0.1650 74.190            
DSCMET_COMPS 2018-04-18 05:20:00 1.680 1.823 1.720 1.649 1.658 100.000 1.679 -0.000 757.400 603.400 597.200               0.0930 193.700            
DSCMET_COMPS 2018-04-18 05:15:00 1.720 1.818 1.696 1.629 1.692 100.000 1.724 0.000 759.600 605.400 596.800               0.1010 86.900            
DSCMET_COMPS 2018-04-18 05:10:00 1.730 1.814 1.677 1.622 1.593 100.000 1.737 0.000 759.400 607.000 597.000               0.1110 6.307            
DSCMET_COMPS 2018-04-18 05:05:00 1.698 1.847 1.692 1.619 1.556 100.000 1.699 0.000 758.500 610.900 602.300               0.2930 123.200            
DSCMET_COMPS 2018-04-18 05:00:00 1.706 1.804 1.704 1.605 1.539 100.000 1.707 0.000 758.500 600.500 619.900                 0.000            
DSCMET_COMPS 2018-04-18 04:55:00 1.642 1.745 1.652 1.587 1.604 100.000 1.643 0.000 758.500 597.500 621.400               0.1150 93.900            
DSCMET_COMPS 2018-04-18 04:50:00 1.754 1.831 1.710 1.565 1.573 100.000 1.756 0.000 757.900 598.600 623.000               0.0990 87.300            
DSCMET_COMPS 2018-04-18 04:45:00 1.655 1.780 1.658 1.554 1.514 100.000 1.657 0.000 757.800 600.600 625.700               0.1120 76.530            
DSCMET_COMPS 2018-04-18 04:40:00 1.652 1.758 1.621 1.547 1.543 100.000 1.654 0.000 758.200 601.100 624.600               0.1550 121.900            
DSCMET_COMPS 2018-04-18 04:35:00 1.602 1.766 1.630 1.534 1.551 100.000 1.602 0.000 757.300 603.600 620.300               0.0840 77.690            
DSCMET_COMPS 2018-04-18 04:30:00 1.607 1.700 1.569 1.534 1.524 100.100 1.615 -0.007 758.800 600.100 623.000               0.0550 76.220            
DSCMET_COMPS 2018-04-18 04:25:00 1.649 1.704 1.585 1.532 1.501 100.000 1.655 0.000 759.000 599.600 628.700               0.1360 54.050            
DSCMET_COMPS 2018-04-18 04:20:00 1.557 1.702 1.562 1.524 1.537 100.000 1.558 0.000 759.700 600.600 630.100               0.0670 70.520            
DSCMET_COMPS 2018-04-18 04:15:00 1.528 1.672 1.576 1.530 1.526 100.000 1.528 0.000 749.100 603.100 632.500               0.1600 312.600            
DSCMET_COMPS 2018-04-18 04:10:00 1.571 1.701 1.573 1.532 1.502 100.000 1.572 0.000 736.500 601.600 635.900               0.1450 329.300            
DSCMET_COMPS 2018-04-18 04:05:00 1.622 1.685 1.569 1.535 1.497 100.000 1.626 0.000 732.500 602.800 639.800               0.1010 100.200            
DSCMET_COMPS 2018-04-18 04:00:00 1.591 1.750 1.619 1.523 1.503 100.000 1.593 0.000 732.200 607.600 643.200               0.0730 94.700            
DSCMET_COMPS 2018-04-18 03:55:00 1.552 1.724 1.572 1.508 1.481 100.000 1.552 0.000 739.700 598.400 644.400                 0.000            
DSCMET_COMPS 2018-04-18 03:50:00 1.548 1.670 1.558 1.496 1.499 100.000 1.548 0.000 738.800 592.300 647.100               0.0900 96.600            
DSCMET_COMPS 2018-04-18 03:45:00 1.546 1.680 1.576 1.496 1.496 100.000 1.547 0.000 736.800 592.400 650.900               0.1830 140.000            
DSCMET_COMPS 2018-04-18 03:40:00 1.631 1.686 1.565 1.495 1.463 100.000 1.636 0.000 735.600 592.500 629.600               0.0750 84.200            
DSCMET_COMPS 2018-04-18 03:35:00 1.629 1.657 1.523 1.497 1.471 100.100 1.639 -0.007 734.000 593.500 622.400               0.1480 91.100            
DSCMET_COMPS 2018-04-18 03:30:00 1.546 1.611 1.487 1.497 1.456 100.000 1.549 0.000 722.300 593.600 616.800               0.1190 55.600            
DSCMET_COMPS 2018-04-18 03:25:00 1.521 1.651 1.502 1.505 1.461 100.000 1.523 0.000 724.700 592.900 617.400               0.0530 72.340            
DSCMET_COMPS 2018-04-18 03:20:00 1.524 1.607 1.468 1.514 1.453 100.000 1.525 -0.000 724.400 594.000 618.100               0.1930 330.600            
DSCMET_COMPS 2018-04-18 03:15:00 1.513 1.663 1.560 1.507 1.499 100.000 1.513 0.000 722.900 594.900 622.600               0.1490 303.200            
DSCMET_COMPS 2018-04-18 03:10:00 1.519 1.614 1.522 1.509 1.431 100.000 1.520 0.000 720.300 597.300 622.800               0.0400 286.900            
DSCMET_COMPS 2018-04-18 03:05:00 1.579 1.654 1.532 1.513 1.491 100.000 1.581 0.000 727.000 603.800 616.700               0.2390 353.100            
DSCMET_COMPS 2018-04-18 03:00:00 1.617 1.686 1.591 1.517 1.504 100.000 1.619 0.000 719.900 602.000 616.600               0.0780 260.300            
DSCMET_COMPS 2018-04-18 02:55:00 1.553 1.675 1.569 1.514 1.476 100.000 1.553 0.000 713.100 600.600 616.400               0.0730 134.500            
DSCMET_COMPS 2018-04-18 02:50:00 1.492 1.615 1.502 1.533 1.454 100.000 1.492 0.000 729.000 601.300 616.000                 0.000            
DSCMET_COMPS 2018-04-18 02:45:00 1.504 1.667 1.554 1.553 1.451 100.000 1.506 0.000 747.700 605.900 616.100                 0.000            
DSCMET_COMPS 2018-04-18 02:40:00 1.592 1.680 1.531 1.579 1.481 100.100 1.601 -0.007 747.600 610.500 614.200               0.0830 74.750            
DSCMET_COMPS 2018-04-18 02:35:00 1.633 1.692 1.532 1.617 1.487 100.000 1.637 0.000 748.000 604.100 614.900               0.1350 293.300            
DSCMET_COMPS 2018-04-18 02:30:00 1.639 1.760 1.603 1.654 1.490 100.000 1.640 0.000 747.000 603.300 615.600               0.2370 137.100            
DSCMET_COMPS 2018-04-18 02:25:00 1.583 1.749 1.663 1.674 1.608 100.000 1.583 0.000 746.600 603.800 617.500               0.1350 110.700            
DSCMET_COMPS 2018-04-18 02:20:00 1.620 1.779 1.725 1.688 1.637 100.000 1.619 0.000 749.300 603.300 619.400               0.0470 274.600            
DSCMET_COMPS 2018-04-18 02:15:00 1.693 1.893 1.757 1.688 1.703 100.000 1.692 0.000 748.200 603.200 621.700               0.1210 101.700            
DSCMET_COMPS 2018-04-18 02:10:00 1.738 1.872 1.717 1.715 1.602 100.000 1.738 0.000 747.700 600.300 622.300               0.1470 64.450            
DSCMET_COMPS 2018-04-18 02:05:00 1.775 1.878 1.701 1.762 1.613 100.000 1.778 0.000 749.500 600.500 618.000               0.0830 92.300            
DSCMET_COMPS 2018-04-18 02:00:00 1.788 1.887 1.780 1.779 1.674 100.000 1.789 0.000 751.000 600.500 618.500               0.1200 88.000            
DSCMET_COMPS 2018-04-18 01:55:00 1.793 1.930 1.820 1.800 1.682 100.000 1.793 0.000 751.200 602.200 611.500               0.0940 86.800            
DSCMET_COMPS 2018-04-18 01:50:00 1.744 1.870 1.787 1.832 1.681 100.000 1.744 0.000 750.400 602.300 611.300               0.1250 62.270            
DSCMET_COMPS 2018-04-18 01:45:00 1.779 1.877 1.764 1.870 1.725 100.000 1.779 0.000 750.800 602.400 615.200                 0.000            
DSCMET_COMPS 2018-04-18 01:40:00 1.864 1.996 1.907 1.897 1.844 100.000 1.864 0.000 755.200 601.600 616.700                 0.000            
DSCMET_COMPS 2018-04-18 01:35:00 1.938 2.068 1.931 1.919 1.819 100.000 1.940 0.000 764.400 602.000 607.000               0.0770 121.500            
DSCMET_COMPS 2018-04-18 01:30:00 2.002 2.049 1.928 1.948 1.813 100.100 2.012 -0.007 767.200 604.900 609.400               0.1060 60.360            
DSCMET_COMPS 2018-04-18 01:25:00 1.945 2.065 1.963 1.974 1.839 100.000 1.950 0.000 762.600 599.300 631.000               0.0180 158.500            
DSCMET_COMPS 2018-04-18 01:20:00 1.876 2.065 1.937 2.015 1.871 100.000 1.878 -0.000 765.600 597.500 640.000               0.0830 73.910            
DSCMET_COMPS 2018-04-18 01:15:00 2.007 2.114 2.055 2.029 2.049 100.000 2.007 0.000 773.400 598.400 641.700               0.1580 10.590            
DSCMET_COMPS 2018-04-18 01:10:00 2.115 2.268 2.185 2.021 1.955 100.000 2.115 0.000 801.000 599.300 643.800               0.1130 275.500            
DSCMET_COMPS 2018-04-18 01:05:00 2.104 2.209 2.065 2.037 1.945 100.000 2.101 0.000 809.000 603.000 646.700               0.1360 124.800            
DSCMET_COMPS 2018-04-18 01:00:00 2.147 2.248 2.068 2.068 1.970 100.000 2.149 0.000 809.000 606.100 648.800               0.1690 119.300            
DSCMET_COMPS 2018-04-18 00:55:00 2.218 2.261 2.114 2.086 1.992 100.000 2.219 0.000 802.000 602.800 643.200               0.1960 101.900            
DSCMET_COMPS 2018-04-18 00:50:00 2.161 2.214 2.081 2.109 2.029 100.000 2.161 0.000 803.000 602.800 643.400               0.1260 91.400            
DSCMET_COMPS 2018-04-18 00:45:00 2.187 2.269 2.116 2.121 2.055 100.000 2.185 0.000 801.000 605.000 631.100               0.1350 87.200            
DSCMET_COMPS 2018-04-18 00:40:00 2.119 2.249 2.128 2.142 2.097 100.000 2.117 0.000 799.000 601.700 627.200               0.1410 88.200            
DSCMET_COMPS 2018-04-18 00:35:00 2.141 2.188 2.091 2.176 2.130 100.000 2.147 -0.000 799.600 601.100 633.900                 0.000            
DSCMET_COMPS 2018-04-18 00:30:00 2.132 2.209 2.118 2.201 2.183 100.000 2.135 0.000 794.600 604.200 636.700               0.1280 341.400            
DSCMET_COMPS 2018-04-18 00:25:00 2.112 2.189 2.073 2.224 2.248 100.000 2.111 0.000 794.000 608.600 637.400               0.1610 29.570            
DSCMET_COMPS 2018-04-18 00:20:00 2.150 2.227 2.125 2.256 2.236 100.000 2.147 0.000 794.400 609.600 638.300               0.1860 25.220            
DSCMET_COMPS 2018-04-18 00:15:00 2.207 2.284 2.134 2.290 2.290 100.000 2.206 0.000 790.700 610.000 639.900               0.1400 36.490            
DSCMET_COMPS 2018-04-18 00:10:00 2.207 2.304 2.167 2.332 2.251 100.000 2.206 0.000 791.200 611.900 640.600               0.1600 309.500            
DSCMET_COMPS 2018-04-18 00:05:00 2.213 2.370 2.284 2.388 2.310 100.000 2.211 0.000 791.000 611.100 639.300               0.1590 302.800            
DSCMET_COMPS 2018-04-18 00:00:00 2.253 2.441 2.338 2.436 2.366 100.000 2.253 0.000 791.300 609.000 638.000               0.1770 306.300            
DSCMET_COMPS 2018-04-17 23:55:00 2.338 2.471 2.323 2.503 2.404 100.000 2.338 0.000 795.100 608.800 636.500               0.1270 24.800            
DSCMET_COMPS 2018-04-17 23:50:00 2.436 2.466 2.367 2.553 2.449 100.000 2.437 0.000 795.100 609.400 638.300               0.1490 317.600            
DSCMET_COMPS 2018-04-17 23:45:00 2.478 2.576 2.431 2.607 2.525 100.000 2.478 0.000 791.300 608.600 641.000               0.1570 293.600            
DSCMET_COMPS 2018-04-17 23:40:00 2.602 2.696 2.608 2.635 2.668 100.000 2.600 0.000 789.600 608.500 645.500               0.0820 305.900            
DSCMET_COMPS 2018-04-17 23:35:00 2.562 2.662 2.611 2.660 2.632 100.000 2.560 0.000 787.700 609.200 648.100               0.0220 251.000            
DSCMET_COMPS 2018-04-17 23:30:00 2.596 2.647 2.538 2.691 2.642 100.000 2.594 0.000 787.600 610.200 646.800                 0.000            
DSCMET_COMPS 2018-04-17 23:25:00 2.556 2.684 2.605 2.707 2.719 100.000 2.555 -0.000 788.100 611.200 646.300               0.1670 303.800            
DSCMET_COMPS 2018-04-17 23:20:00 2.699 2.737 2.631 2.728 2.708 100.100 2.708 -0.007 792.000 613.800 643.400               0.0920 60.180            
DSCMET_COMPS 2018-04-17 23:15:00 2.743 2.825 2.687 2.758 2.778 100.000 2.745 0.000 796.000 620.300 635.700               0.1270 9.800            
DSCMET_COMPS 2018-04-17 23:10:00 2.724 2.877 2.784 2.777 2.794 100.000 2.726 0.000 792.100 619.300 635.000               0.0270 69.900            
DSCMET_COMPS 2018-04-17 23:05:00 2.789 2.900 2.796 2.790 2.847 100.000 2.787 0.000 783.300 622.700 634.900               0.1100 58.320            
DSCMET_COMPS 2018-04-17 23:00:00 2.814 2.908 2.723 2.793 2.878 100.000 2.814 0.000 782.900 630.900 637.600               0.0970 50.370            
DSCMET_COMPS 2018-04-17 22:55:00 2.787 2.878 2.750 2.799 2.882 100.000 2.786 0.000 786.100 616.900 635.100               0.0490 301.800            
DSCMET_COMPS 2018-04-17 22:50:00 2.791 2.883 2.767 2.825 2.849 100.000 2.792 -0.000 787.900 609.600 632.500               0.1050 307.400            
DSCMET_COMPS 2018-04-17 22:45:00 2.818 2.904 2.800 2.855 2.812 100.000 2.821 0.000 786.700 609.400 629.200               0.0700 306.700            
DSCMET_COMPS 2018-04-17 22:40:00 2.882 2.921 2.811 2.886 2.865 100.000 2.882 0.000 821.000 610.200 627.400               0.0840 33.110            
DSCMET_COMPS 2018-04-17 22:35:00 2.857 2.975 2.864 2.909 2.963 100.000 2.855 0.000 826.000 611.700 628.300               0.0290 68.690            
DSCMET_COMPS 2018-04-17 22:30:00 2.923 2.993 2.842 2.914 3.008 100.000 2.922 0.000 814.000 612.700 625.800               0.1060 307.000            
DSCMET_COMPS 2018-04-17 22:25:00 2.938 3.010 2.862 2.925 3.008 100.000 2.938 0.000 814.000 611.200 625.200                 0.000            
DSCMET_COMPS 2018-04-17 22:20:00 2.948 3.016 2.868 2.946 2.976 100.000 2.951 0.000 814.000 615.700 624.100               0.1240 359.400            
DSCMET_COMPS 2018-04-17 22:15:00 3.009 3.026 2.902 2.965 3.008 100.000 3.018 0.000 815.000 615.800 622.000               0.0950 41.220            
DSCMET_COMPS 2018-04-17 22:10:00 2.948 3.029 2.963 2.986 3.009 100.000 2.952 0.000 817.000 599.300 622.800               0.0550 69.510            
DSCMET_COMPS 2018-04-17 22:05:00 2.950 3.042 2.962 3.009 3.033 100.000 2.950 0.000 810.000 598.600 622.900               0.0820 64.950            
DSCMET_COMPS 2018-04-17 22:00:00 2.938 3.027 2.976 3.032 2.999 100.000 2.937 0.000 794.800 599.800 624.700               0.1250 32.200            
DSCMET_COMPS 2018-04-17 21:55:00 3.020 3.069 2.968 3.061 3.044 100.000 3.019 0.000 791.000 601.200 627.600               0.1730 337.300            
DSCMET_COMPS 2018-04-17 21:50:00 3.020 3.131 3.013 3.073 3.102 100.000 3.019 0.000 790.400 602.700 630.900               0.0920 343.000            
DSCMET_COMPS 2018-04-17 21:45:00 3.060 3.124 2.989 3.087 3.172 100.000 3.062 0.000 791.700 600.900 635.400               0.0340 340.200            
DSCMET_COMPS 2018-04-17 21:40:00 3.072 3.143 3.005 3.107 3.136 100.000 3.074 0.000 793.600 599.800 642.700               0.0680 309.700            
DSCMET_COMPS 2018-04-17 21:35:00 3.123 3.196 3.053 3.145 3.154 100.000 3.124 0.000 792.800 599.700 626.700               0.1060 303.000            
DSCMET_COMPS 2018-04-17 21:30:00 3.164 3.257 3.074 3.187 3.248 100.000 3.164 -0.000 803.000 604.400 612.800               0.0140 301.400            
DSCMET_COMPS 2018-04-17 21:25:00 3.191 3.276 3.109 3.232 3.217 100.000 3.189 0.000 802.000 612.700 616.000               0.1550 302.900            
DSCMET_COMPS 2018-04-17 21:20:00 3.204 3.269 3.146 3.270 3.282 100.000 3.203 0.000 801.000 618.000 620.000                 0.000            
DSCMET_COMPS 2018-04-17 21:15:00 3.294 3.291 3.189 3.304 3.302 100.000 3.303 -0.000 796.500 615.400 618.600               0.0970 296.700            
DSCMET_COMPS 2018-04-17 21:10:00 3.316 3.319 3.209 3.328 3.293 100.000 3.322 0.000 797.800 617.000 635.500               0.0790 295.700            
DSCMET_COMPS 2018-04-17 21:05:00 3.316 3.401 3.327 3.336 3.321 100.000 3.320 0.000 808.000 603.400 637.200               0.1360 297.600            
DSCMET_COMPS 2018-04-17 21:00:00 3.340 3.515 3.425 3.344 3.349 100.000 3.341 0.000 808.000 597.200 639.700               0.0460 307.600            
DSCMET_COMPS 2018-04-17 20:55:00 3.289 3.489 3.405 3.362 3.343 100.000 3.289 0.000 797.400 599.100 633.300               0.0650 88.200            
DSCMET_COMPS 2018-04-17 20:50:00 3.305 3.449 3.402 3.377 3.394 100.000 3.305 -0.000 798.400 602.600 627.700               0.0880 62.220            
DSCMET_COMPS 2018-04-17 20:45:00 3.316 3.437 3.345 3.397 3.413 100.000 3.316 0.000 793.700 598.600 628.800               0.1410 332.700            
DSCMET_COMPS 2018-04-17 20:40:00 3.335 3.477 3.388 3.412 3.439 100.000 3.336 0.000 789.400 603.100 622.700               0.0940 2.156            
DSCMET_COMPS 2018-04-17 20:35:00 3.369 3.503 3.414 3.421 3.461 100.000 3.372 0.000 783.100 602.000 620.600               0.0250 67.540            
DSCMET_COMPS 2018-04-17 20:30:00 3.367 3.514 3.455 3.430 3.475 100.000 3.369 0.000 784.000 600.100 616.600               0.0520 57.980            
DSCMET_COMPS 2018-04-17 20:25:00 3.357 3.465 3.401 3.449 3.457 100.000 3.357 0.000 784.600 594.400 616.800               0.1650 306.400            
DSCMET_COMPS 2018-04-17 20:20:00 3.398 3.504 3.428 3.482 3.422 100.000 3.399 0.000 812.000 584.100 619.900               0.0860 304.000            
DSCMET_COMPS 2018-04-17 20:15:00 3.433 3.528 3.463 3.510 3.451 100.000 3.434 0.000 826.000 589.900 618.500                 0.000            
DSCMET_COMPS 2018-04-17 20:10:00 3.444 3.550 3.487 3.534 3.511 100.000 3.447 -0.000 792.800 582.000 607.400               0.0290 34.400            
DSCMET_COMPS 2018-04-17 20:05:00 3.588 3.571 3.489 3.559 3.568 100.100 3.598 -0.008 786.900 580.100 594.500               0.0980 313.900            
DSCMET_COMPS 2018-04-17 20:00:00 3.564 3.642 3.490 3.589 3.555 100.000 3.569 0.000 812.000 574.600 593.200               0.1050 52.960            
DSCMET_COMPS 2018-04-17 19:55:00 3.535 3.674 3.508 3.633 3.573 100.000 3.537 -0.000 811.000 573.700 597.600               0.1020 28.910            
DSCMET_COMPS 2018-04-17 19:50:00 3.581 3.724 3.574 3.685 3.589 100.000 3.582 0.000 801.000 573.500 606.400               0.0930 350.100            
DSCMET_COMPS 2018-04-17 19:45:00 3.649 3.771 3.661 3.738 3.625 100.000 3.649 0.000 800.000 571.200 604.800               0.1140 56.170            
DSCMET_COMPS 2018-04-17 19:40:00 3.690 3.803 3.700 3.786 3.669 100.000 3.690 0.000 799.400 597.200 605.100               0.0790 76.450            
DSCMET_COMPS 2018-04-17 19:35:00 3.732 3.855 3.733 3.825 3.752 100.000 3.735 -0.000 801.000 614.500 607.800               0.1120 56.500            
DSCMET_COMPS 2018-04-17 19:30:00 3.788 3.855 3.750 3.862 3.791 100.000 3.790 0.000 790.200 619.400 625.600               0.1030 30.920            
DSCMET_COMPS 2018-04-17 19:25:00 3.793 3.881 3.792 3.890 3.808 100.000 3.793 0.000 804.000 631.600 625.900               0.0880 311.100            
DSCMET_COMPS 2018-04-17 19:20:00 3.871 3.952 3.846 3.928 3.834 100.000 3.871 0.000 798.800 640.300 625.400               0.1290 303.200            
DSCMET_COMPS 2018-04-17 19:15:00 3.902 4.008 3.897 3.970 3.852 100.000 3.903 0.000 802.000 637.900 619.600               0.1090 64.060            
DSCMET_COMPS 2018-04-17 19:10:00 4.036 4.045 3.923 4.015 3.892 100.000 4.045 0.000 798.000 626.000 630.600                 0.000            
DSCMET_COMPS 2018-04-17 19:05:00 3.954 4.063 3.924 4.065 3.909 100.000 3.959 0.000 795.400 628.000 623.200                 0.000            
DSCMET_COMPS 2018-04-17 19:00:00 3.956 4.116 4.011 4.117 3.875 100.000 3.959 0.000 790.900 627.400 619.100               0.1130 86.800            
DSCMET_COMPS 2018-04-17 18:55:00 4.064 4.189 4.053 4.170 3.902 100.000 4.067 0.000 788.100 641.000 614.600               0.1040 93.300            
DSCMET_COMPS 2018-04-17 18:50:00 4.068 4.255 4.176 4.191 4.049 100.000 4.070 0.000 777.300 644.600 619.500               0.0430 101.200            
DSCMET_COMPS 2018-04-17 18:45:00 4.119 4.238 4.141 4.207 4.119 100.000 4.122 0.000 782.900 656.000 619.300               0.1800 124.900            
DSCMET_COMPS 2018-04-17 18:40:00 4.166 4.288 4.206 4.219 4.078 100.000 4.169 0.000 786.800 651.600 623.900               0.1770 130.300            
DSCMET_COMPS 2018-04-17 18:35:00 4.143 4.262 4.206 4.234 4.197 100.000 4.146 0.000 779.800 652.300 632.700               0.0270 238.600            
DSCMET_COMPS 2018-04-17 18:30:00 4.170 4.304 4.215 4.238 4.142 100.000 4.170 0.000 772.800 649.100 627.300               0.1310 237.300            
DSCMET_COMPS 2018-04-17 18:25:00 4.159 4.301 4.261 4.239 4.158 100.000 4.162 0.000 801.000 645.100 622.200               0.2090 172.800            
DSCMET_COMPS 2018-04-17 18:20:00 4.217 4.326 4.235 4.236 4.220 100.000 4.222 0.000 814.000 644.700 616.200               0.2020 128.700            
DSCMET_COMPS 2018-04-17 18:15:00 4.327 4.356 4.238 4.251 4.201 100.000 4.337 0.000 790.100 643.900 602.300               0.1280 118.600            
DSCMET_COMPS 2018-04-17 18:10:00 4.251 4.325 4.220 4.277 4.152 100.000 4.256 0.000 791.900 643.500 591.900               0.1360 111.000            
DSCMET_COMPS 2018-04-17 18:05:00 4.237 4.380 4.272 4.304 4.192 100.000 4.241 0.000 795.300 640.300 616.100               0.1750 107.400            
DSCMET_COMPS 2018-04-17 18:00:00 4.193 4.404 4.312 4.338 4.172 100.000 4.195 0.000 794.800 642.700 653.300                 0.000            
DSCMET_COMPS 2018-04-17 17:55:00 4.143 4.319 4.216 4.396 4.155 100.000 4.145 0.000 794.800 630.000 655.600               0.0810 212.900            
DSCMET_COMPS 2018-04-17 17:50:00 4.244 4.363 4.215 4.492 4.131 100.000 4.246 0.000 779.700 635.000 637.900               0.0400 82.200            
DSCMET_COMPS 2018-04-17 17:45:00 4.300 4.406 4.271 4.596 4.228 100.000 4.306 0.000 791.200 657.400 622.500               0.1250 87.600            
DSCMET_COMPS 2018-04-17 17:40:00 4.409 4.485 4.329 4.719 4.310 100.000 4.414 0.000 781.000 682.700 638.300               0.1620 46.560            
DSCMET_COMPS 2018-04-17 17:35:00 4.380 4.537 4.410 4.878 4.418 100.000 4.383 0.000 741.000 671.100 704.500               0.1700 86.400            
DSCMET_COMPS 2018-04-17 17:30:00 4.377 4.558 4.496 5.069 4.583 100.000 4.380 0.000 701.000 667.700 724.000               0.1950 64.780            
DSCMET_COMPS 2018-04-17 17:25:00 4.366 4.525 4.517 5.290 4.684 100.000 4.370 0.000 728.500 678.600 720.500               0.2950 10.210            
DSCMET_COMPS 2018-04-17 17:20:00 4.784 4.808 4.740 5.601 4.848 100.000 4.788 0.000 747.200 718.500 730.000               0.4620 3.913            
DSCMET_COMPS 2018-04-17 17:15:00 5.306 5.341 5.235 5.848 5.147 100.000 5.315 0.000 766.600 699.800 702.400               0.6110 332.700            
DSCMET_COMPS 2018-04-17 17:10:00 5.534 5.680 5.651 5.973 5.610 100.000 5.542 0.000 791.500 676.000 665.900               0.7500 334.400            
DSCMET_COMPS 2018-04-17 17:05:00 5.508 5.717 5.800 5.997 5.940 100.000 5.513 0.000 812.000 653.400 643.900               0.3410 284.000            
DSCMET_COMPS 2018-04-17 17:00:00 5.484 5.727 5.803 5.991 6.039 100.000 5.488 0.000 818.000 651.800 642.700               0.1420 279.700            
DSCMET_COMPS 2018-04-17 16:55:00 5.545 5.792 5.806 5.974 6.094 100.000 5.550 0.000 825.000 652.100 643.300                 0.000            
DSCMET_COMPS 2018-04-17 16:50:00 5.545 5.789 5.834 5.972 6.081 100.000 5.550 0.000 807.000 652.800 643.200               0.0820 295.100            
DSCMET_COMPS 2018-04-17 16:45:00 5.472 5.845 5.908 5.981 6.095 100.000 5.479 0.000 805.000 653.700 644.000               0.1560 302.600            
DSCMET_COMPS 2018-04-17 16:40:00 5.384 5.821 5.939 6.031 6.178 100.000 5.389 0.000 805.000 654.800 645.700               0.1010 278.800            
DSCMET_COMPS 2018-04-17 16:35:00 5.369 5.684 5.984 6.083 6.262 100.000 5.374 0.000 806.000 655.500 648.000               0.1910 294.800            
DSCMET_COMPS 2018-04-17 16:30:00 5.383 5.693 5.924 6.107 6.397 100.000 5.387 0.000 807.000 656.800 648.900               0.2940 326.600            
DSCMET_COMPS 2018-04-17 16:25:00 5.615 5.899 5.994 6.103 6.533 100.000 5.620 0.000 809.000 658.700 649.600               0.3530 328.700            
DSCMET_COMPS 2018-04-17 16:20:00 5.649 5.893 6.032 6.076 6.404 100.000 5.656 0.000 811.000 662.100 650.200               0.1880 10.370            
DSCMET_COMPS 2018-04-17 16:15:00 5.620 5.816 6.021 6.054 6.303 100.000 5.630 0.000 821.000 663.500 651.400               0.2810 0.268            
DSCMET_COMPS 2018-04-17 16:10:00 5.528 5.772 5.839 6.070 6.289 100.000 5.535 0.000 821.000 663.400 653.900               0.1220 290.900            
DSCMET_COMPS 2018-04-17 16:05:00 5.510 5.743 5.771 6.189 6.260 100.000 5.515 0.000 823.000 669.500 659.000               0.1740 303.400            
DSCMET_COMPS 2018-04-17 16:00:00 5.416 5.622 5.722 6.380 6.045 100.000 5.421 0.000 823.000 685.600 676.600               0.4950 332.000            
DSCMET_COMPS 2018-04-17 15:55:00 5.389 5.518 5.473 6.543 5.919 100.000 5.394 0.000 818.000 693.200 691.500               0.5030 22.880            
DSCMET_COMPS 2018-04-17 15:50:00 5.686 5.864 5.907 6.678 6.207 100.000 5.690 0.000 811.000 676.900 639.500                 0.000            
DSCMET_COMPS 2018-04-17 15:45:00 5.688 5.849 6.077 6.747 6.657 100.000 5.695 0.000 794.400 660.200 616.900                 0.000            
DSCMET_COMPS 2018-04-17 15:40:00 5.645 5.921 6.114 6.767 6.797 100.000 5.650 0.000 793.900 659.500 615.000               0.2420 261.600            
DSCMET_COMPS 2018-04-17 15:35:00 5.571 5.811 6.003 6.784 6.770 100.000 5.576 0.000 793.700 659.100 615.000               0.2260 306.700            
DSCMET_COMPS 2018-04-17 15:30:00 5.481 5.691 6.045 6.774 6.832 100.000 5.486 0.000 793.800 659.500 614.100               0.3090 305.200            
DSCMET_COMPS 2018-04-17 15:25:00 5.547 5.835 6.198 6.715 7.162 100.000 5.552 0.000 794.100 659.800 614.100               0.2710 293.000            
DSCMET_COMPS 2018-04-17 15:20:00 5.708 6.009 6.083 6.632 7.291 100.000 5.715 0.000 794.400 660.400 614.600               0.3820 329.500            
DSCMET_COMPS 2018-04-17 15:15:00 5.710 5.988 6.131 6.527 7.327 100.000 5.720 0.000 795.300 661.100 615.000               0.2810 324.200            
DSCMET_COMPS 2018-04-17 15:10:00 5.647 5.932 6.124 6.371 7.857 100.000 5.654 0.000 795.700 661.600 615.600               0.1420 296.000            
DSCMET_COMPS 2018-04-17 15:05:00 5.654 6.028 6.303 6.211 7.370 99.500 5.582 0.046 795.400 663.100 617.700               0.2010 307.100            
DSCMET_COMPS 2018-04-17 15:00:00 5.598 5.961 6.089 6.104 6.945 96.800 5.126 0.291 797.000 666.500 624.200               0.1980 358.300            
DSCMET_COMPS 2018-04-17 14:55:00 5.595 6.030 6.099 6.019 6.846 99.900 5.585 0.009 795.700 669.800 630.000               0.2440 346.900            
DSCMET_COMPS 2018-04-17 14:50:00 5.462 5.876 5.848 5.947 6.539 99.700 5.423 0.027 784.800 671.200 633.600               0.2090 327.900            
DSCMET_COMPS 2018-04-17 14:45:00 5.432 5.689 5.784 5.871 6.398 100.000 5.438 0.000 784.500 674.600 637.300               0.1950 9.600            
DSCMET_COMPS 2018-04-17 14:40:00 5.182 5.432 5.575 5.778 5.963 100.000 5.186 0.000 782.800 675.000 639.800                 0.000            
DSCMET_COMPS 2018-04-17 14:35:00 5.169 5.419 5.435 5.742 5.845 100.000 5.173 0.000 783.700 675.900 643.200               0.1750 322.600            
DSCMET_COMPS 2018-04-17 14:30:00 5.108 5.305 5.113 5.720 5.706 100.000 5.111 0.000 792.700 677.200 646.800               0.1730 95.300